PWSweather.com
Personal Weather Stations
Station Observations
EI4HQ
Cork Harbour, CobhIE

Cork HarbourCobhIE

Lat: 51.85, Lon: -8.29

Elevation: 252

Station Type: Davis Vantage Pro2

http://www.corkharbourweather.ie

High Low Average
Temperature 66.6°F19.2°C 32.0°F0.0°C 57.9°F14.4°C
Dew Point 54.7°F12.6°C 40.8°F4.9°C 48.3°F9.1°C
Winds 12.0 mph 19.3 kmh 1.0 mph 1.6 kmh 6.0 mph SW9.7 kmh SW
Wind Gusts 18.0 mph29.0 kmh 2.0 mph3.2 kmh 10.0 mph16.1 kmh
Humidity 92% 0% 71%
Pressure 30.13 in1020.3 mb 30.05 in1017.6 mb -
Precipitation 0.00 in0.0 mm - -
Hour Temp Dew Point Humidity Winds Wind Gusts Pressure Precip Precip Rate Daily Precip Total
12:00 AM 49.5°F9.7°C 43.5°F6.4°C 80% 2.0 mph NW3.2 kmh NW 3.0 mph4.8 kmh 30.05 in1017.6 mb 0.00 in0.0 mm 0.00 in0.0 mm 0.00 in0.0 mm
12:03 AM 49.5°F9.7°C 43.5°F6.4°C 80% 2.0 mph NW3.2 kmh NW 3.0 mph4.8 kmh 30.05 in1017.6 mb 0.00 in0.0 mm 0.00 in0.0 mm 0.00 in0.0 mm
12:06 AM 49.5°F9.7°C 43.5°F6.4°C 80% 2.0 mph NW3.2 kmh NW 5.0 mph8.0 kmh 30.05 in1017.6 mb 0.00 in0.0 mm 0.00 in0.0 mm 0.00 in0.0 mm
12:09 AM 49.5°F9.7°C 43.5°F6.4°C 80% 2.0 mph NW3.2 kmh NW 5.0 mph8.0 kmh 30.05 in1017.6 mb 0.00 in0.0 mm 0.00 in0.0 mm 0.00 in0.0 mm
12:12 AM 49.5°F9.7°C 43.5°F6.4°C 80% 2.0 mph NW3.2 kmh NW 5.0 mph8.0 kmh 30.05 in1017.6 mb 0.00 in0.0 mm 0.00 in0.0 mm 0.00 in0.0 mm
12:15 AM 49.5°F9.7°C 43.5°F6.4°C 80% 2.0 mph NW3.2 kmh NW 4.0 mph6.4 kmh 30.05 in1017.6 mb 0.00 in0.0 mm 0.00 in0.0 mm 0.00 in0.0 mm
12:18 AM 32.0°F0.0°C 43.5°F6.4°C 0% 3.0 mph NW4.8 kmh NW 3.0 mph4.8 kmh 30.05 in1017.6 mb 0.00 in0.0 mm 0.00 in0.0 mm 0.00 in0.0 mm
05:36 AM 43.5°F6.4°C 40.8°F4.9°C 90% 3.0 mph NNW4.8 kmh NNW 7.0 mph11.3 kmh 30.08 in1018.6 mb 0.00 in0.0 mm 0.00 in0.0 mm 0.00 in0.0 mm
05:39 AM 43.5°F6.4°C 40.8°F4.9°C 90% 3.0 mph NNW4.8 kmh NNW 6.0 mph9.7 kmh 30.08 in1018.6 mb 0.00 in0.0 mm 0.00 in0.0 mm 0.00 in0.0 mm
05:42 AM 43.7°F6.5°C 41.2°F5.1°C 91% 2.0 mph NNW3.2 kmh NNW 6.0 mph9.7 kmh 30.08 in1018.6 mb 0.00 in0.0 mm 0.00 in0.0 mm 0.00 in0.0 mm
05:45 AM 43.9°F6.6°C 41.4°F5.2°C 91% 2.0 mph N3.2 kmh N 6.0 mph9.7 kmh 30.08 in1018.6 mb 0.00 in0.0 mm 0.00 in0.0 mm 0.00 in0.0 mm
05:48 AM 44.1°F6.7°C 41.7°F5.4°C 91% 1.0 mph NNW1.6 kmh NNW 4.0 mph6.4 kmh 30.08 in1018.6 mb 0.00 in0.0 mm 0.00 in0.0 mm 0.00 in0.0 mm
05:51 AM 44.2°F6.8°C 41.9°F5.5°C 91% 1.0 mph N1.6 kmh N 4.0 mph6.4 kmh 30.08 in1018.6 mb 0.00 in0.0 mm 0.00 in0.0 mm 0.00 in0.0 mm
05:54 AM 44.6°F7.0°C 42.1°F5.6°C 91% 2.0 mph N3.2 kmh N 5.0 mph8.0 kmh 30.08 in1018.6 mb 0.00 in0.0 mm 0.00 in0.0 mm 0.00 in0.0 mm
05:57 AM 45.0°F7.2°C 42.4°F5.8°C 91% 3.0 mph NNW4.8 kmh NNW 7.0 mph11.3 kmh 30.09 in1019.0 mb 0.00 in0.0 mm 0.00 in0.0 mm 0.00 in0.0 mm
06:00 AM 45.1°F7.3°C 42.6°F5.9°C 91% 3.0 mph NNW4.8 kmh NNW 7.0 mph11.3 kmh 30.09 in1019.0 mb 0.00 in0.0 mm 0.00 in0.0 mm 0.00 in0.0 mm
06:03 AM 45.3°F7.4°C 42.8°F6.0°C 91% 3.0 mph NNW4.8 kmh NNW 7.0 mph11.3 kmh 30.09 in1019.0 mb 0.00 in0.0 mm 0.00 in0.0 mm 0.00 in0.0 mm
06:06 AM 45.5°F7.5°C 43.0°F6.1°C 91% 2.0 mph NNW3.2 kmh NNW 6.0 mph9.7 kmh 30.09 in1019.0 mb 0.00 in0.0 mm 0.00 in0.0 mm 0.00 in0.0 mm
06:09 AM 45.9°F7.7°C 43.3°F6.3°C 91% 3.0 mph NNW4.8 kmh NNW 7.0 mph11.3 kmh 30.09 in1019.0 mb 0.00 in0.0 mm 0.00 in0.0 mm 0.00 in0.0 mm
06:12 AM 46.2°F7.9°C 44.1°F6.7°C 92% 3.0 mph NNW4.8 kmh NNW 7.0 mph11.3 kmh 30.09 in1019.0 mb 0.00 in0.0 mm 0.00 in0.0 mm 0.00 in0.0 mm
06:15 AM 46.8°F8.2°C 44.6°F7.0°C 92% 3.0 mph NNW4.8 kmh NNW 7.0 mph11.3 kmh 30.09 in1019.0 mb 0.00 in0.0 mm 0.00 in0.0 mm 0.00 in0.0 mm
06:18 AM 47.3°F8.5°C 44.8°F7.1°C 91% 3.0 mph N4.8 kmh N 7.0 mph11.3 kmh 30.09 in1019.0 mb 0.00 in0.0 mm 0.00 in0.0 mm 0.00 in0.0 mm
06:21 AM 48.0°F8.9°C 45.5°F7.5°C 91% 4.0 mph N6.4 kmh N 7.0 mph11.3 kmh 30.09 in1019.0 mb 0.00 in0.0 mm 0.00 in0.0 mm 0.00 in0.0 mm
06:24 AM 48.6°F9.2°C 46.0°F7.8°C 91% 4.0 mph N6.4 kmh N 7.0 mph11.3 kmh 30.09 in1019.0 mb 0.00 in0.0 mm 0.00 in0.0 mm 0.00 in0.0 mm
06:27 AM 48.9°F9.4°C 46.0°F7.8°C 90% 4.0 mph N6.4 kmh N 7.0 mph11.3 kmh 30.09 in1019.0 mb 0.00 in0.0 mm 0.00 in0.0 mm 0.00 in0.0 mm
06:30 AM 49.5°F9.7°C 46.8°F8.2°C 90% 4.0 mph N6.4 kmh N 8.0 mph12.9 kmh 30.09 in1019.0 mb 0.00 in0.0 mm 0.00 in0.0 mm 0.00 in0.0 mm
06:33 AM 49.8°F9.9°C 47.1°F8.4°C 90% 4.0 mph N6.4 kmh N 8.0 mph12.9 kmh 30.09 in1019.0 mb 0.00 in0.0 mm 0.00 in0.0 mm 0.00 in0.0 mm
06:36 AM 50.0°F10.0°C 46.9°F8.3°C 89% 5.0 mph NNW8.0 kmh NNW 8.0 mph12.9 kmh 30.09 in1019.0 mb 0.00 in0.0 mm 0.00 in0.0 mm 0.00 in0.0 mm
06:39 AM 50.0°F10.0°C 46.6°F8.1°C 88% 5.0 mph NNW8.0 kmh NNW 8.0 mph12.9 kmh 30.09 in1019.0 mb 0.00 in0.0 mm 0.00 in0.0 mm 0.00 in0.0 mm
06:42 AM 50.2°F10.1°C 46.8°F8.2°C 88% 4.0 mph NNW6.4 kmh NNW 7.0 mph11.3 kmh 30.09 in1019.0 mb 0.00 in0.0 mm 0.00 in0.0 mm 0.00 in0.0 mm
06:45 AM 50.2°F10.1°C 46.8°F8.2°C 88% 4.0 mph N6.4 kmh N 7.0 mph11.3 kmh 30.09 in1019.0 mb 0.00 in0.0 mm 0.00 in0.0 mm 0.00 in0.0 mm
06:48 AM 50.2°F10.1°C 46.4°F8.0°C 87% 4.0 mph NNW6.4 kmh NNW 7.0 mph11.3 kmh 30.09 in1019.0 mb 0.00 in0.0 mm 0.00 in0.0 mm 0.00 in0.0 mm
06:51 AM 50.4°F10.2°C 46.6°F8.1°C 87% 3.0 mph N4.8 kmh N 7.0 mph11.3 kmh 30.09 in1019.0 mb 0.00 in0.0 mm 0.00 in0.0 mm 0.00 in0.0 mm
06:54 AM 50.4°F10.2°C 46.8°F8.2°C 87% 3.0 mph N4.8 kmh N 7.0 mph11.3 kmh 30.09 in1019.0 mb 0.00 in0.0 mm 0.00 in0.0 mm 0.00 in0.0 mm
06:57 AM 50.4°F10.2°C 46.4°F8.0°C 86% 2.0 mph N3.2 kmh N 7.0 mph11.3 kmh 30.09 in1019.0 mb 0.00 in0.0 mm 0.00 in0.0 mm 0.00 in0.0 mm
07:00 AM 50.4°F10.2°C 46.0°F7.8°C 85% 2.0 mph NNW3.2 kmh NNW 7.0 mph11.3 kmh 30.09 in1019.0 mb 0.00 in0.0 mm 0.00 in0.0 mm 0.00 in0.0 mm
07:03 AM 50.4°F10.2°C 46.0°F7.8°C 85% 3.0 mph NNW4.8 kmh NNW 7.0 mph11.3 kmh 30.10 in1019.3 mb 0.00 in0.0 mm 0.00 in0.0 mm 0.00 in0.0 mm
07:06 AM 50.2°F10.1°C 45.9°F7.7°C 85% 3.0 mph NNW4.8 kmh NNW 7.0 mph11.3 kmh 30.09 in1019.0 mb 0.00 in0.0 mm 0.00 in0.0 mm 0.00 in0.0 mm
07:09 AM 50.2°F10.1°C 45.9°F7.7°C 85% 4.0 mph NNW6.4 kmh NNW 7.0 mph11.3 kmh 30.10 in1019.3 mb 0.00 in0.0 mm 0.00 in0.0 mm 0.00 in0.0 mm
07:12 AM 50.2°F10.1°C 45.9°F7.7°C 85% 4.0 mph NNW6.4 kmh NNW 6.0 mph9.7 kmh 30.10 in1019.3 mb 0.00 in0.0 mm 0.00 in0.0 mm 0.00 in0.0 mm
07:15 AM 50.4°F10.2°C 46.0°F7.8°C 85% 4.0 mph N6.4 kmh N 7.0 mph11.3 kmh 30.10 in1019.3 mb 0.00 in0.0 mm 0.00 in0.0 mm 0.00 in0.0 mm
07:18 AM 50.7°F10.4°C 46.4°F8.0°C 85% 4.0 mph N6.4 kmh N 7.0 mph11.3 kmh 30.10 in1019.3 mb 0.00 in0.0 mm 0.00 in0.0 mm 0.00 in0.0 mm
07:21 AM 51.1°F10.6°C 47.1°F8.4°C 86% 4.0 mph N6.4 kmh N 7.0 mph11.3 kmh 30.10 in1019.3 mb 0.00 in0.0 mm 0.00 in0.0 mm 0.00 in0.0 mm
07:24 AM 51.4°F10.8°C 47.3°F8.5°C 86% 3.0 mph N4.8 kmh N 7.0 mph11.3 kmh 30.10 in1019.3 mb 0.00 in0.0 mm 0.00 in0.0 mm 0.00 in0.0 mm
07:27 AM 52.0°F11.1°C 48.0°F8.9°C 86% 3.0 mph N4.8 kmh N 6.0 mph9.7 kmh 30.10 in1019.3 mb 0.00 in0.0 mm 0.00 in0.0 mm 0.00 in0.0 mm
07:30 AM 52.3°F11.3°C 48.0°F8.9°C 85% 2.0 mph N3.2 kmh N 6.0 mph9.7 kmh 30.10 in1019.3 mb 0.00 in0.0 mm 0.00 in0.0 mm 0.00 in0.0 mm
07:33 AM 52.7°F11.5°C 48.0°F8.9°C 84% 2.0 mph N3.2 kmh N 6.0 mph9.7 kmh 30.10 in1019.3 mb 0.00 in0.0 mm 0.00 in0.0 mm 0.00 in0.0 mm
07:36 AM 53.1°F11.7°C 48.4°F9.1°C 84% 2.0 mph N3.2 kmh N 6.0 mph9.7 kmh 30.10 in1019.3 mb 0.00 in0.0 mm 0.00 in0.0 mm 0.00 in0.0 mm
07:39 AM 53.2°F11.8°C 48.2°F9.0°C 83% 2.0 mph N3.2 kmh N 5.0 mph8.0 kmh 30.10 in1019.3 mb 0.00 in0.0 mm 0.00 in0.0 mm 0.00 in0.0 mm
07:42 AM 53.8°F12.1°C 48.7°F9.3°C 83% 2.0 mph N3.2 kmh N 5.0 mph8.0 kmh 30.10 in1019.3 mb 0.00 in0.0 mm 0.00 in0.0 mm 0.00 in0.0 mm
07:45 AM 54.1°F12.3°C 48.7°F9.3°C 82% 1.0 mph N1.6 kmh N 5.0 mph8.0 kmh 30.10 in1019.3 mb 0.00 in0.0 mm 0.00 in0.0 mm 0.00 in0.0 mm
07:48 AM 54.3°F12.4°C 48.6°F9.2°C 81% 1.0 mph N1.6 kmh N 5.0 mph8.0 kmh 30.10 in1019.3 mb 0.00 in0.0 mm 0.00 in0.0 mm 0.00 in0.0 mm
07:51 AM 54.3°F12.4°C 48.2°F9.0°C 80% 1.0 mph N1.6 kmh N 3.0 mph4.8 kmh 30.11 in1019.6 mb 0.00 in0.0 mm 0.00 in0.0 mm 0.00 in0.0 mm
07:54 AM 54.5°F12.5°C 48.4°F9.1°C 80% 1.0 mph N1.6 kmh N 3.0 mph4.8 kmh 30.11 in1019.6 mb 0.00 in0.0 mm 0.00 in0.0 mm 0.00 in0.0 mm
07:57 AM 54.5°F12.5°C 48.2°F9.0°C 79% 1.0 mph N1.6 kmh N 3.0 mph4.8 kmh 30.11 in1019.6 mb 0.00 in0.0 mm 0.00 in0.0 mm 0.00 in0.0 mm
08:00 AM 54.7°F12.6°C 48.4°F9.1°C 79% 1.0 mph N1.6 kmh N 3.0 mph4.8 kmh 30.11 in1019.6 mb 0.00 in0.0 mm 0.00 in0.0 mm 0.00 in0.0 mm
08:03 AM 54.9°F12.7°C 48.6°F9.2°C 79% 1.0 mph N1.6 kmh N 3.0 mph4.8 kmh 30.11 in1019.6 mb 0.00 in0.0 mm 0.00 in0.0 mm 0.00 in0.0 mm
08:06 AM 55.2°F12.9°C 48.7°F9.3°C 79% 1.0 mph N1.6 kmh N 3.0 mph4.8 kmh 30.11 in1019.6 mb 0.00 in0.0 mm 0.00 in0.0 mm 0.00 in0.0 mm
08:09 AM 55.6°F13.1°C 49.1°F9.5°C 79% 1.0 mph N1.6 kmh N 3.0 mph4.8 kmh 30.11 in1019.6 mb 0.00 in0.0 mm 0.00 in0.0 mm 0.00 in0.0 mm
08:12 AM 56.1°F13.4°C 49.6°F9.8°C 79% 1.0 mph N1.6 kmh N 2.0 mph3.2 kmh 30.11 in1019.6 mb 0.00 in0.0 mm 0.00 in0.0 mm 0.00 in0.0 mm
08:15 AM 56.7°F13.7°C 50.2°F10.1°C 79% 1.0 mph N1.6 kmh N 3.0 mph4.8 kmh 30.11 in1019.6 mb 0.00 in0.0 mm 0.00 in0.0 mm 0.00 in0.0 mm
08:18 AM 57.0°F13.9°C 50.7°F10.4°C 79% 1.0 mph ESE1.6 kmh ESE 3.0 mph4.8 kmh 30.11 in1019.6 mb 0.00 in0.0 mm 0.00 in0.0 mm 0.00 in0.0 mm
08:21 AM 57.6°F14.2°C 50.7°F10.4°C 78% 2.0 mph SE3.2 kmh SE 3.0 mph4.8 kmh 30.11 in1019.6 mb 0.00 in0.0 mm 0.00 in0.0 mm 0.00 in0.0 mm
08:24 AM 57.7°F14.3°C 50.5°F10.3°C 77% 2.0 mph SE3.2 kmh SE 3.0 mph4.8 kmh 30.11 in1019.6 mb 0.00 in0.0 mm 0.00 in0.0 mm 0.00 in0.0 mm
08:27 AM 57.9°F14.4°C 50.9°F10.5°C 77% 2.0 mph SE3.2 kmh SE 3.0 mph4.8 kmh 30.11 in1019.6 mb 0.00 in0.0 mm 0.00 in0.0 mm 0.00 in0.0 mm
08:30 AM 58.3°F14.6°C 50.7°F10.4°C 76% 2.0 mph SE3.2 kmh SE 3.0 mph4.8 kmh 30.11 in1019.6 mb 0.00 in0.0 mm 0.00 in0.0 mm 0.00 in0.0 mm
08:33 AM 58.6°F14.8°C 51.1°F10.6°C 76% 2.0 mph SE3.2 kmh SE 3.0 mph4.8 kmh 30.11 in1019.6 mb 0.00 in0.0 mm 0.00 in0.0 mm 0.00 in0.0 mm
08:36 AM 58.8°F14.9°C 50.9°F10.5°C 75% 1.0 mph SE1.6 kmh SE 3.0 mph4.8 kmh 30.11 in1019.6 mb 0.00 in0.0 mm 0.00 in0.0 mm 0.00 in0.0 mm
08:39 AM 58.8°F14.9°C 50.5°F10.3°C 74% 2.0 mph SE3.2 kmh SE 4.0 mph6.4 kmh 30.11 in1019.6 mb 0.00 in0.0 mm 0.00 in0.0 mm 0.00 in0.0 mm
08:42 AM 58.8°F14.9°C 50.9°F10.5°C 75% 2.0 mph SE3.2 kmh SE 4.0 mph6.4 kmh 30.11 in1019.6 mb 0.00 in0.0 mm 0.00 in0.0 mm 0.00 in0.0 mm
08:45 AM 59.2°F15.1°C 51.3°F10.7°C 75% 2.0 mph SE3.2 kmh SE 4.0 mph6.4 kmh 30.11 in1019.6 mb 0.00 in0.0 mm 0.00 in0.0 mm 0.00 in0.0 mm
08:48 AM 59.4°F15.2°C 51.4°F10.8°C 75% 2.0 mph SE3.2 kmh SE 3.0 mph4.8 kmh 30.11 in1019.6 mb 0.00 in0.0 mm 0.00 in0.0 mm 0.00 in0.0 mm
08:51 AM 59.4°F15.2°C 50.7°F10.4°C 73% 2.0 mph SE3.2 kmh SE 5.0 mph8.0 kmh 30.11 in1019.6 mb 0.00 in0.0 mm 0.00 in0.0 mm 0.00 in0.0 mm
08:54 AM 59.4°F15.2°C 50.7°F10.4°C 73% 3.0 mph SE4.8 kmh SE 5.0 mph8.0 kmh 30.11 in1019.6 mb 0.00 in0.0 mm 0.00 in0.0 mm 0.00 in0.0 mm
08:57 AM 59.5°F15.3°C 50.5°F10.3°C 72% 2.0 mph SE3.2 kmh SE 5.0 mph8.0 kmh 30.11 in1019.6 mb 0.00 in0.0 mm 0.00 in0.0 mm 0.00 in0.0 mm
09:00 AM 59.5°F15.3°C 50.5°F10.3°C 72% 2.0 mph SE3.2 kmh SE 4.0 mph6.4 kmh 30.11 in1019.6 mb 0.00 in0.0 mm 0.00 in0.0 mm 0.00 in0.0 mm
09:03 AM 59.5°F15.3°C 50.5°F10.3°C 72% 2.0 mph SE3.2 kmh SE 5.0 mph8.0 kmh 30.11 in1019.6 mb 0.00 in0.0 mm 0.00 in0.0 mm 0.00 in0.0 mm
09:06 AM 59.4°F15.2°C 50.0°F10.0°C 71% 3.0 mph SE4.8 kmh SE 5.0 mph8.0 kmh 30.11 in1019.6 mb 0.00 in0.0 mm 0.00 in0.0 mm 0.00 in0.0 mm
09:09 AM 59.4°F15.2°C 50.4°F10.2°C 72% 4.0 mph SE6.4 kmh SE 5.0 mph8.0 kmh 30.11 in1019.6 mb 0.00 in0.0 mm 0.00 in0.0 mm 0.00 in0.0 mm
09:12 AM 59.4°F15.2°C 50.4°F10.2°C 72% 4.0 mph SE6.4 kmh SE 5.0 mph8.0 kmh 30.11 in1019.6 mb 0.00 in0.0 mm 0.00 in0.0 mm 0.00 in0.0 mm
09:15 AM 59.5°F15.3°C 50.9°F10.5°C 73% 3.0 mph SE4.8 kmh SE 5.0 mph8.0 kmh 30.11 in1019.6 mb 0.00 in0.0 mm 0.00 in0.0 mm 0.00 in0.0 mm
09:18 AM 59.7°F15.4°C 51.4°F10.8°C 74% 3.0 mph SE4.8 kmh SE 5.0 mph8.0 kmh 30.11 in1019.6 mb 0.00 in0.0 mm 0.00 in0.0 mm 0.00 in0.0 mm
09:21 AM 60.1°F15.6°C 51.6°F10.9°C 74% 3.0 mph SE4.8 kmh SE 5.0 mph8.0 kmh 30.11 in1019.6 mb 0.00 in0.0 mm 0.00 in0.0 mm 0.00 in0.0 mm
09:24 AM 60.3°F15.7°C 51.8°F11.0°C 74% 3.0 mph SE4.8 kmh SE 5.0 mph8.0 kmh 30.11 in1019.6 mb 0.00 in0.0 mm 0.00 in0.0 mm 0.00 in0.0 mm
09:27 AM 60.4°F15.8°C 52.2°F11.2°C 74% 3.0 mph SSE4.8 kmh SSE 5.0 mph8.0 kmh 30.11 in1019.6 mb 0.00 in0.0 mm 0.00 in0.0 mm 0.00 in0.0 mm
09:30 AM 60.6°F15.9°C 52.0°F11.1°C 73% 3.0 mph SSE4.8 kmh SSE 5.0 mph8.0 kmh 30.11 in1019.6 mb 0.00 in0.0 mm 0.00 in0.0 mm 0.00 in0.0 mm
09:33 AM 60.6°F15.9°C 52.0°F11.1°C 73% 3.0 mph SSE4.8 kmh SSE 5.0 mph8.0 kmh 30.11 in1019.6 mb 0.00 in0.0 mm 0.00 in0.0 mm 0.00 in0.0 mm
09:36 AM 60.6°F15.9°C 51.4°F10.8°C 72% 3.0 mph SSE4.8 kmh SSE 5.0 mph8.0 kmh 30.11 in1019.6 mb 0.00 in0.0 mm 0.00 in0.0 mm 0.00 in0.0 mm
09:39 AM 60.4°F15.8°C 51.6°F10.9°C 73% 3.0 mph SSE4.8 kmh SSE 5.0 mph8.0 kmh 30.11 in1019.6 mb 0.00 in0.0 mm 0.00 in0.0 mm 0.00 in0.0 mm
09:42 AM 60.4°F15.8°C 51.3°F10.7°C 72% 3.0 mph SSE4.8 kmh SSE 5.0 mph8.0 kmh 30.11 in1019.6 mb 0.00 in0.0 mm 0.00 in0.0 mm 0.00 in0.0 mm
09:45 AM 60.6°F15.9°C 52.0°F11.1°C 73% 3.0 mph SSE4.8 kmh SSE 5.0 mph8.0 kmh 30.11 in1019.6 mb 0.00 in0.0 mm 0.00 in0.0 mm 0.00 in0.0 mm
09:48 AM 60.8°F16.0°C 52.2°F11.2°C 73% 3.0 mph SSE4.8 kmh SSE 4.0 mph6.4 kmh 30.11 in1019.6 mb 0.00 in0.0 mm 0.00 in0.0 mm 0.00 in0.0 mm
09:51 AM 61.0°F16.1°C 52.0°F11.1°C 72% 2.0 mph SSE3.2 kmh SSE 4.0 mph6.4 kmh 30.11 in1019.6 mb 0.00 in0.0 mm 0.00 in0.0 mm 0.00 in0.0 mm
09:54 AM 61.3°F16.3°C 52.7°F11.5°C 73% 3.0 mph SSE4.8 kmh SSE 4.0 mph6.4 kmh 30.11 in1019.6 mb 0.00 in0.0 mm 0.00 in0.0 mm 0.00 in0.0 mm
09:57 AM 61.9°F16.6°C 53.1°F11.7°C 73% 3.0 mph SSE4.8 kmh SSE 5.0 mph8.0 kmh 30.11 in1019.6 mb 0.00 in0.0 mm 0.00 in0.0 mm 0.00 in0.0 mm
10:00 AM 62.1°F16.7°C 52.5°F11.4°C 71% 3.0 mph SSE4.8 kmh SSE 5.0 mph8.0 kmh 30.11 in1019.6 mb 0.00 in0.0 mm 0.00 in0.0 mm 0.00 in0.0 mm
10:03 AM 62.4°F16.9°C 53.2°F11.8°C 72% 3.0 mph SSE4.8 kmh SSE 5.0 mph8.0 kmh 30.11 in1019.6 mb 0.00 in0.0 mm 0.00 in0.0 mm 0.00 in0.0 mm
10:06 AM 62.6°F17.0°C 53.1°F11.7°C 71% 3.0 mph S4.8 kmh S 5.0 mph8.0 kmh 30.11 in1019.6 mb 0.00 in0.0 mm 0.00 in0.0 mm 0.00 in0.0 mm
10:09 AM 62.8°F17.1°C 52.9°F11.6°C 70% 3.0 mph S4.8 kmh S 5.0 mph8.0 kmh 30.11 in1019.6 mb 0.00 in0.0 mm 0.00 in0.0 mm 0.00 in0.0 mm
10:12 AM 62.8°F17.1°C 52.9°F11.6°C 70% 3.0 mph S4.8 kmh S 5.0 mph8.0 kmh 30.11 in1019.6 mb 0.00 in0.0 mm 0.00 in0.0 mm 0.00 in0.0 mm
10:15 AM 63.1°F17.3°C 53.2°F11.8°C 70% 3.0 mph S4.8 kmh S 5.0 mph8.0 kmh 30.11 in1019.6 mb 0.00 in0.0 mm 0.00 in0.0 mm 0.00 in0.0 mm
10:18 AM 63.1°F17.3°C 53.6°F12.0°C 71% 4.0 mph SSE6.4 kmh SSE 6.0 mph9.7 kmh 30.11 in1019.6 mb 0.00 in0.0 mm 0.00 in0.0 mm 0.00 in0.0 mm
10:21 AM 62.8°F17.1°C 53.2°F11.8°C 71% 5.0 mph SSE8.0 kmh SSE 9.0 mph14.5 kmh 30.11 in1019.6 mb 0.00 in0.0 mm 0.00 in0.0 mm 0.00 in0.0 mm
10:24 AM 62.6°F17.0°C 52.7°F11.5°C 70% 6.0 mph SSE9.7 kmh SSE 11.0 mph17.7 kmh 30.11 in1019.6 mb 0.00 in0.0 mm 0.00 in0.0 mm 0.00 in0.0 mm
10:27 AM 62.2°F16.8°C 52.7°F11.5°C 71% 8.0 mph SSE12.9 kmh SSE 12.0 mph19.3 kmh 30.11 in1019.6 mb 0.00 in0.0 mm 0.00 in0.0 mm 0.00 in0.0 mm
10:30 AM 62.1°F16.7°C 52.5°F11.4°C 71% 9.0 mph SSE14.5 kmh SSE 12.0 mph19.3 kmh 30.12 in1020.0 mb 0.00 in0.0 mm 0.00 in0.0 mm 0.00 in0.0 mm
10:33 AM 62.1°F16.7°C 52.9°F11.6°C 72% 9.0 mph SSE14.5 kmh SSE 12.0 mph19.3 kmh 30.12 in1020.0 mb 0.00 in0.0 mm 0.00 in0.0 mm 0.00 in0.0 mm
10:36 AM 62.1°F16.7°C 52.5°F11.4°C 71% 8.0 mph SSE12.9 kmh SSE 11.0 mph17.7 kmh 30.11 in1019.6 mb 0.00 in0.0 mm 0.00 in0.0 mm 0.00 in0.0 mm
10:39 AM 62.1°F16.7°C 52.5°F11.4°C 71% 8.0 mph SSE12.9 kmh SSE 11.0 mph17.7 kmh 30.12 in1020.0 mb 0.00 in0.0 mm 0.00 in0.0 mm 0.00 in0.0 mm
10:42 AM 62.2°F16.8°C 53.1°F11.7°C 72% 8.0 mph SSE12.9 kmh SSE 11.0 mph17.7 kmh 30.12 in1020.0 mb 0.00 in0.0 mm 0.00 in0.0 mm 0.00 in0.0 mm
10:45 AM 62.2°F16.8°C 54.0°F12.2°C 74% 7.0 mph SSE11.3 kmh SSE 11.0 mph17.7 kmh 30.12 in1020.0 mb 0.00 in0.0 mm 0.00 in0.0 mm 0.00 in0.0 mm
10:48 AM 62.2°F16.8°C 53.6°F12.0°C 73% 7.0 mph SSE11.3 kmh SSE 11.0 mph17.7 kmh 30.12 in1020.0 mb 0.00 in0.0 mm 0.00 in0.0 mm 0.00 in0.0 mm
10:51 AM 62.4°F16.9°C 53.6°F12.0°C 73% 6.0 mph SSE9.7 kmh SSE 10.0 mph16.1 kmh 30.12 in1020.0 mb 0.00 in0.0 mm 0.00 in0.0 mm 0.00 in0.0 mm
10:54 AM 62.2°F16.8°C 53.1°F11.7°C 72% 6.0 mph SSE9.7 kmh SSE 10.0 mph16.1 kmh 30.12 in1020.0 mb 0.00 in0.0 mm 0.00 in0.0 mm 0.00 in0.0 mm
10:57 AM 62.1°F16.7°C 53.4°F11.9°C 73% 7.0 mph SSE11.3 kmh SSE 10.0 mph16.1 kmh 30.12 in1020.0 mb 0.00 in0.0 mm 0.00 in0.0 mm 0.00 in0.0 mm
11:00 AM 62.1°F16.7°C 53.2°F11.8°C 73% 8.0 mph SSE12.9 kmh SSE 10.0 mph16.1 kmh 30.12 in1020.0 mb 0.00 in0.0 mm 0.00 in0.0 mm 0.00 in0.0 mm
11:03 AM 62.1°F16.7°C 53.8°F12.1°C 74% 8.0 mph SSE12.9 kmh SSE 10.0 mph16.1 kmh 30.12 in1020.0 mb 0.00 in0.0 mm 0.00 in0.0 mm 0.00 in0.0 mm
11:06 AM 62.2°F16.8°C 53.8°F12.1°C 74% 8.0 mph SSE12.9 kmh SSE 10.0 mph16.1 kmh 30.12 in1020.0 mb 0.00 in0.0 mm 0.00 in0.0 mm 0.00 in0.0 mm
11:09 AM 62.4°F16.9°C 54.3°F12.4°C 75% 8.0 mph SE12.9 kmh SE 11.0 mph17.7 kmh 30.12 in1020.0 mb 0.00 in0.0 mm 0.00 in0.0 mm 0.00 in0.0 mm
11:12 AM 62.6°F17.0°C 54.5°F12.5°C 75% 7.0 mph SE11.3 kmh SE 11.0 mph17.7 kmh 30.12 in1020.0 mb 0.00 in0.0 mm 0.00 in0.0 mm 0.00 in0.0 mm
11:15 AM 62.8°F17.1°C 54.7°F12.6°C 75% 6.0 mph SE9.7 kmh SE 11.0 mph17.7 kmh 30.12 in1020.0 mb 0.00 in0.0 mm 0.00 in0.0 mm 0.00 in0.0 mm
11:18 AM 62.8°F17.1°C 54.3°F12.4°C 74% 7.0 mph SE11.3 kmh SE 11.0 mph17.7 kmh 30.12 in1020.0 mb 0.00 in0.0 mm 0.00 in0.0 mm 0.00 in0.0 mm
11:21 AM 62.6°F17.0°C 53.8°F12.1°C 73% 7.0 mph SE11.3 kmh SE 11.0 mph17.7 kmh 30.12 in1020.0 mb 0.00 in0.0 mm 0.00 in0.0 mm 0.00 in0.0 mm
11:24 AM 62.4°F16.9°C 54.1°F12.3°C 74% 8.0 mph SSE12.9 kmh SSE 13.0 mph20.9 kmh 30.12 in1020.0 mb 0.00 in0.0 mm 0.00 in0.0 mm 0.00 in0.0 mm
11:27 AM 62.4°F16.9°C 53.8°F12.1°C 73% 9.0 mph SSE14.5 kmh SSE 14.0 mph22.5 kmh 30.12 in1020.0 mb 0.00 in0.0 mm 0.00 in0.0 mm 0.00 in0.0 mm
11:30 AM 62.2°F16.8°C 53.6°F12.0°C 73% 9.0 mph SSE14.5 kmh SSE 14.0 mph22.5 kmh 30.11 in1019.6 mb 0.00 in0.0 mm 0.00 in0.0 mm 0.00 in0.0 mm
11:33 AM 61.9°F16.6°C 52.7°F11.5°C 72% 10.0 mph SSE16.1 kmh SSE 14.0 mph22.5 kmh 30.12 in1020.0 mb 0.00 in0.0 mm 0.00 in0.0 mm 0.00 in0.0 mm
11:36 AM 61.5°F16.4°C 52.3°F11.3°C 72% 10.0 mph SSE16.1 kmh SSE 14.0 mph22.5 kmh 30.11 in1019.6 mb 0.00 in0.0 mm 0.00 in0.0 mm 0.00 in0.0 mm
11:39 AM 61.3°F16.3°C 52.9°F11.6°C 74% 9.0 mph SSE14.5 kmh SSE 14.0 mph22.5 kmh 30.12 in1020.0 mb 0.00 in0.0 mm 0.00 in0.0 mm 0.00 in0.0 mm
11:42 AM 61.3°F16.3°C 53.1°F11.7°C 74% 9.0 mph SSE14.5 kmh SSE 14.0 mph22.5 kmh 30.12 in1020.0 mb 0.00 in0.0 mm 0.00 in0.0 mm 0.00 in0.0 mm
11:45 AM 61.3°F16.3°C 53.1°F11.7°C 74% 10.0 mph SSE16.1 kmh SSE 14.0 mph22.5 kmh 30.12 in1020.0 mb 0.00 in0.0 mm 0.00 in0.0 mm 0.00 in0.0 mm
11:48 AM 61.3°F16.3°C 52.9°F11.6°C 74% 10.0 mph SSE16.1 kmh SSE 17.0 mph27.4 kmh 30.11 in1019.6 mb 0.00 in0.0 mm 0.00 in0.0 mm 0.00 in0.0 mm
11:51 AM 61.0°F16.1°C 52.7°F11.5°C 74% 11.0 mph SSE17.7 kmh SSE 17.0 mph27.4 kmh 30.12 in1020.0 mb 0.00 in0.0 mm 0.00 in0.0 mm 0.00 in0.0 mm
11:54 AM 61.2°F16.2°C 53.1°F11.7°C 75% 11.0 mph SSE17.7 kmh SSE 17.0 mph27.4 kmh 30.12 in1020.0 mb 0.00 in0.0 mm 0.00 in0.0 mm 0.00 in0.0 mm
11:57 AM 61.2°F16.2°C 53.6°F12.0°C 76% 12.0 mph SSE19.3 kmh SSE 16.0 mph25.7 kmh 30.12 in1020.0 mb 0.00 in0.0 mm 0.00 in0.0 mm 0.00 in0.0 mm
12:00 PM 61.3°F16.3°C 54.0°F12.2°C 77% 12.0 mph SSE19.3 kmh SSE 16.0 mph25.7 kmh 30.12 in1020.0 mb 0.00 in0.0 mm 0.00 in0.0 mm 0.00 in0.0 mm
12:03 PM 61.3°F16.3°C 53.8°F12.1°C 76% 11.0 mph SSE17.7 kmh SSE 16.0 mph25.7 kmh 30.12 in1020.0 mb 0.00 in0.0 mm 0.00 in0.0 mm 0.00 in0.0 mm
12:06 PM 61.5°F16.4°C 53.8°F12.1°C 76% 10.0 mph SSE16.1 kmh SSE 16.0 mph25.7 kmh 30.12 in1020.0 mb 0.00 in0.0 mm 0.00 in0.0 mm 0.00 in0.0 mm
12:09 PM 61.5°F16.4°C 54.0°F12.2°C 76% 9.0 mph SSE14.5 kmh SSE 16.0 mph25.7 kmh 30.12 in1020.0 mb 0.00 in0.0 mm 0.00 in0.0 mm 0.00 in0.0 mm
12:12 PM 61.7°F16.5°C 53.8°F12.1°C 75% 10.0 mph SSE16.1 kmh SSE 16.0 mph25.7 kmh 30.12 in1020.0 mb 0.00 in0.0 mm 0.00 in0.0 mm 0.00 in0.0 mm
12:15 PM 61.9°F16.6°C 53.8°F12.1°C 75% 10.0 mph SSE16.1 kmh SSE 16.0 mph25.7 kmh 30.12 in1020.0 mb 0.00 in0.0 mm 0.00 in0.0 mm 0.00 in0.0 mm
12:18 PM 62.4°F16.9°C 54.0°F12.2°C 74% 10.0 mph SSE16.1 kmh SSE 16.0 mph25.7 kmh 30.12 in1020.0 mb 0.00 in0.0 mm 0.00 in0.0 mm 0.00 in0.0 mm
12:21 PM 62.8°F17.1°C 54.0°F12.2°C 73% 9.0 mph S14.5 kmh S 14.0 mph22.5 kmh 30.12 in1020.0 mb 0.00 in0.0 mm 0.00 in0.0 mm 0.00 in0.0 mm
12:24 PM 63.1°F17.3°C 54.0°F12.2°C 72% 8.0 mph S12.9 kmh S 14.0 mph22.5 kmh 30.12 in1020.0 mb 0.00 in0.0 mm 0.00 in0.0 mm 0.00 in0.0 mm
12:27 PM 63.7°F17.6°C 52.9°F11.6°C 68% 8.0 mph S12.9 kmh S 14.0 mph22.5 kmh 30.12 in1020.0 mb 0.00 in0.0 mm 0.00 in0.0 mm 0.00 in0.0 mm
12:30 PM 64.2°F17.9°C 53.1°F11.7°C 67% 8.0 mph S12.9 kmh S 13.0 mph20.9 kmh 30.12 in1020.0 mb 0.00 in0.0 mm 0.00 in0.0 mm 0.00 in0.0 mm
12:33 PM 64.8°F18.2°C 52.7°F11.5°C 65% 8.0 mph S12.9 kmh S 13.0 mph20.9 kmh 30.12 in1020.0 mb 0.00 in0.0 mm 0.00 in0.0 mm 0.00 in0.0 mm
12:36 PM 65.1°F18.4°C 51.8°F11.0°C 62% 9.0 mph S14.5 kmh S 15.0 mph24.1 kmh 30.12 in1020.0 mb 0.00 in0.0 mm 0.00 in0.0 mm 0.00 in0.0 mm
12:39 PM 65.5°F18.6°C 51.3°F10.7°C 60% 9.0 mph S14.5 kmh S 16.0 mph25.7 kmh 30.12 in1020.0 mb 0.00 in0.0 mm 0.00 in0.0 mm 0.00 in0.0 mm
12:42 PM 65.8°F18.8°C 51.4°F10.8°C 60% 10.0 mph S16.1 kmh S 16.0 mph25.7 kmh 30.12 in1020.0 mb 0.00 in0.0 mm 0.00 in0.0 mm 0.00 in0.0 mm
12:45 PM 66.0°F18.9°C 50.9°F10.5°C 58% 11.0 mph S17.7 kmh S 16.0 mph25.7 kmh 30.12 in1020.0 mb 0.00 in0.0 mm 0.00 in0.0 mm 0.00 in0.0 mm
12:48 PM 66.2°F19.0°C 49.6°F9.8°C 55% 11.0 mph S17.7 kmh S 15.0 mph24.1 kmh 30.12 in1020.0 mb 0.00 in0.0 mm 0.00 in0.0 mm 0.00 in0.0 mm
12:51 PM 66.2°F19.0°C 49.6°F9.8°C 55% 11.0 mph S17.7 kmh S 16.0 mph25.7 kmh 30.12 in1020.0 mb 0.00 in0.0 mm 0.00 in0.0 mm 0.00 in0.0 mm
12:54 PM 66.2°F19.0°C 50.9°F10.5°C 58% 11.0 mph S17.7 kmh S 16.0 mph25.7 kmh 30.12 in1020.0 mb 0.00 in0.0 mm 0.00 in0.0 mm 0.00 in0.0 mm
12:57 PM 66.4°F19.1°C 49.8°F9.9°C 55% 11.0 mph S17.7 kmh S 16.0 mph25.7 kmh 30.12 in1020.0 mb 0.00 in0.0 mm 0.00 in0.0 mm 0.00 in0.0 mm
01:00 PM 66.4°F19.1°C 49.8°F9.9°C 55% 10.0 mph S16.1 kmh S 15.0 mph24.1 kmh 30.12 in1020.0 mb 0.00 in0.0 mm 0.00 in0.0 mm 0.00 in0.0 mm
01:03 PM 66.4°F19.1°C 49.6°F9.8°C 55% 9.0 mph S14.5 kmh S 15.0 mph24.1 kmh 30.12 in1020.0 mb 0.00 in0.0 mm 0.00 in0.0 mm 0.00 in0.0 mm
01:06 PM 66.4°F19.1°C 49.6°F9.8°C 55% 9.0 mph S14.5 kmh S 15.0 mph24.1 kmh 30.12 in1020.0 mb 0.00 in0.0 mm 0.00 in0.0 mm 0.00 in0.0 mm
01:09 PM 66.4°F19.1°C 49.6°F9.8°C 55% 9.0 mph S14.5 kmh S 16.0 mph25.7 kmh 30.12 in1020.0 mb 0.00 in0.0 mm 0.00 in0.0 mm 0.00 in0.0 mm
01:12 PM 66.2°F19.0°C 50.0°F10.0°C 56% 10.0 mph S16.1 kmh S 16.0 mph25.7 kmh 30.12 in1020.0 mb 0.00 in0.0 mm 0.00 in0.0 mm 0.00 in0.0 mm
01:15 PM 66.2°F19.0°C 49.6°F9.8°C 55% 10.0 mph S16.1 kmh S 16.0 mph25.7 kmh 30.12 in1020.0 mb 0.00 in0.0 mm 0.00 in0.0 mm 0.00 in0.0 mm
01:18 PM 66.2°F19.0°C 49.6°F9.8°C 55% 10.0 mph S16.1 kmh S 15.0 mph24.1 kmh 30.12 in1020.0 mb 0.00 in0.0 mm 0.00 in0.0 mm 0.00 in0.0 mm
01:21 PM 66.2°F19.0°C 49.6°F9.8°C 55% 11.0 mph S17.7 kmh S 15.0 mph24.1 kmh 30.12 in1020.0 mb 0.00 in0.0 mm 0.00 in0.0 mm 0.00 in0.0 mm
01:24 PM 66.2°F19.0°C 49.1°F9.5°C 54% 11.0 mph S17.7 kmh S 16.0 mph25.7 kmh 30.12 in1020.0 mb 0.00 in0.0 mm 0.00 in0.0 mm 0.00 in0.0 mm
01:27 PM 66.0°F18.9°C 48.9°F9.4°C 54% 11.0 mph S17.7 kmh S 16.0 mph25.7 kmh 30.12 in1020.0 mb 0.00 in0.0 mm 0.00 in0.0 mm 0.00 in0.0 mm
01:30 PM 66.0°F18.9°C 49.8°F9.9°C 56% 11.0 mph S17.7 kmh S 16.0 mph25.7 kmh 30.12 in1020.0 mb 0.00 in0.0 mm 0.00 in0.0 mm 0.00 in0.0 mm
01:33 PM 66.0°F18.9°C 49.8°F9.9°C 56% 10.0 mph S16.1 kmh S 16.0 mph25.7 kmh 30.12 in1020.0 mb 0.00 in0.0 mm 0.00 in0.0 mm 0.00 in0.0 mm
01:36 PM 65.8°F18.8°C 49.3°F9.6°C 55% 11.0 mph S17.7 kmh S 18.0 mph29.0 kmh 30.12 in1020.0 mb 0.00 in0.0 mm 0.00 in0.0 mm 0.00 in0.0 mm
01:39 PM 65.8°F18.8°C 49.6°F9.8°C 56% 11.0 mph S17.7 kmh S 18.0 mph29.0 kmh 30.12 in1020.0 mb 0.00 in0.0 mm 0.00 in0.0 mm 0.00 in0.0 mm
01:42 PM 65.8°F18.8°C 49.6°F9.8°C 56% 11.0 mph S17.7 kmh S 18.0 mph29.0 kmh 30.12 in1020.0 mb 0.00 in0.0 mm 0.00 in0.0 mm 0.00 in0.0 mm
01:45 PM 65.8°F18.8°C 50.2°F10.1°C 57% 12.0 mph S19.3 kmh S 18.0 mph29.0 kmh 30.12 in1020.0 mb 0.00 in0.0 mm 0.00 in0.0 mm 0.00 in0.0 mm
01:48 PM 65.8°F18.8°C 49.8°F9.9°C 56% 11.0 mph S17.7 kmh S 16.0 mph25.7 kmh 30.12 in1020.0 mb 0.00 in0.0 mm 0.00 in0.0 mm 0.00 in0.0 mm
01:51 PM 66.0°F18.9°C 50.4°F10.2°C 57% 11.0 mph S17.7 kmh S 16.0 mph25.7 kmh 30.12 in1020.0 mb 0.00 in0.0 mm 0.00 in0.0 mm 0.00 in0.0 mm
01:54 PM 66.0°F18.9°C 50.4°F10.2°C 57% 11.0 mph S17.7 kmh S 16.0 mph25.7 kmh 30.12 in1020.0 mb 0.00 in0.0 mm 0.00 in0.0 mm 0.00 in0.0 mm
01:57 PM 66.0°F18.9°C 50.4°F10.2°C 57% 11.0 mph S17.7 kmh S 16.0 mph25.7 kmh 30.12 in1020.0 mb 0.00 in0.0 mm 0.00 in0.0 mm 0.00 in0.0 mm
02:00 PM 66.0°F18.9°C 50.4°F10.2°C 57% 11.0 mph S17.7 kmh S 18.0 mph29.0 kmh 30.12 in1020.0 mb 0.00 in0.0 mm 0.00 in0.0 mm 0.00 in0.0 mm
02:03 PM 66.2°F19.0°C 50.0°F10.0°C 56% 11.0 mph S17.7 kmh S 18.0 mph29.0 kmh 30.12 in1020.0 mb 0.00 in0.0 mm 0.00 in0.0 mm 0.00 in0.0 mm
02:06 PM 66.2°F19.0°C 50.0°F10.0°C 56% 12.0 mph S19.3 kmh S 18.0 mph29.0 kmh 30.12 in1020.0 mb 0.00 in0.0 mm 0.00 in0.0 mm 0.00 in0.0 mm
02:09 PM 66.2°F19.0°C 50.0°F10.0°C 56% 11.0 mph S17.7 kmh S 17.0 mph27.4 kmh 30.12 in1020.0 mb 0.00 in0.0 mm 0.00 in0.0 mm 0.00 in0.0 mm
02:12 PM 66.2°F19.0°C 50.0°F10.0°C 56% 10.0 mph S16.1 kmh S 17.0 mph27.4 kmh 30.12 in1020.0 mb 0.00 in0.0 mm 0.00 in0.0 mm 0.00 in0.0 mm
02:15 PM 66.2°F19.0°C 50.5°F10.3°C 57% 9.0 mph S14.5 kmh S 15.0 mph24.1 kmh 30.12 in1020.0 mb 0.00 in0.0 mm 0.00 in0.0 mm 0.00 in0.0 mm
02:18 PM 66.2°F19.0°C 50.0°F10.0°C 56% 9.0 mph S14.5 kmh S 14.0 mph22.5 kmh 30.12 in1020.0 mb 0.00 in0.0 mm 0.00 in0.0 mm 0.00 in0.0 mm
02:21 PM 66.2°F19.0°C 50.5°F10.3°C 57% 10.0 mph S16.1 kmh S 14.0 mph22.5 kmh 30.12 in1020.0 mb 0.00 in0.0 mm 0.00 in0.0 mm 0.00 in0.0 mm
02:24 PM 66.0°F18.9°C 50.9°F10.5°C 58% 10.0 mph S16.1 kmh S 14.0 mph22.5 kmh 30.12 in1020.0 mb 0.00 in0.0 mm 0.00 in0.0 mm 0.00 in0.0 mm
02:27 PM 65.8°F18.8°C 49.1°F9.5°C 55% 10.0 mph S16.1 kmh S 15.0 mph24.1 kmh 30.12 in1020.0 mb 0.00 in0.0 mm 0.00 in0.0 mm 0.00 in0.0 mm
02:30 PM 65.5°F18.6°C 49.8°F9.9°C 57% 10.0 mph S16.1 kmh S 15.0 mph24.1 kmh 30.12 in1020.0 mb 0.00 in0.0 mm 0.00 in0.0 mm 0.00 in0.0 mm
02:33 PM 65.5°F18.6°C 50.2°F10.1°C 58% 10.0 mph S16.1 kmh S 15.0 mph24.1 kmh 30.12 in1020.0 mb 0.00 in0.0 mm 0.00 in0.0 mm 0.00 in0.0 mm
02:36 PM 65.7°F18.7°C 51.3°F10.7°C 60% 11.0 mph S17.7 kmh S 17.0 mph27.4 kmh 30.12 in1020.0 mb 0.00 in0.0 mm 0.00 in0.0 mm 0.00 in0.0 mm
02:39 PM 65.8°F18.8°C 50.5°F10.3°C 58% 12.0 mph S19.3 kmh S 17.0 mph27.4 kmh 30.12 in1020.0 mb 0.00 in0.0 mm 0.00 in0.0 mm 0.00 in0.0 mm
02:42 PM 65.7°F18.7°C 50.5°F10.3°C 58% 11.0 mph S17.7 kmh S 17.0 mph27.4 kmh 30.12 in1020.0 mb 0.00 in0.0 mm 0.00 in0.0 mm 0.00 in0.0 mm
02:45 PM 65.8°F18.8°C 50.5°F10.3°C 58% 10.0 mph S16.1 kmh S 17.0 mph27.4 kmh 30.12 in1020.0 mb 0.00 in0.0 mm 0.00 in0.0 mm 0.00 in0.0 mm
02:48 PM 66.0°F18.9°C 50.7°F10.4°C 58% 10.0 mph S16.1 kmh S 16.0 mph25.7 kmh 30.12 in1020.0 mb 0.00 in0.0 mm 0.00 in0.0 mm 0.00 in0.0 mm
02:51 PM 66.2°F19.0°C 51.4°F10.8°C 59% 10.0 mph S16.1 kmh S 16.0 mph25.7 kmh 30.12 in1020.0 mb 0.00 in0.0 mm 0.00 in0.0 mm 0.00 in0.0 mm
02:54 PM 66.4°F19.1°C 50.7°F10.4°C 57% 11.0 mph S17.7 kmh S 16.0 mph25.7 kmh 30.12 in1020.0 mb 0.00 in0.0 mm 0.00 in0.0 mm 0.00 in0.0 mm
02:57 PM 66.6°F19.2°C 50.7°F10.4°C 57% 11.0 mph S17.7 kmh S 15.0 mph24.1 kmh 30.12 in1020.0 mb 0.00 in0.0 mm 0.00 in0.0 mm 0.00 in0.0 mm
03:00 PM 66.4°F19.1°C 50.2°F10.1°C 56% 11.0 mph S17.7 kmh S 15.0 mph24.1 kmh 30.12 in1020.0 mb 0.00 in0.0 mm 0.00 in0.0 mm 0.00 in0.0 mm
03:03 PM 66.2°F19.0°C 50.9°F10.5°C 58% 11.0 mph S17.7 kmh S 16.0 mph25.7 kmh 30.12 in1020.0 mb 0.00 in0.0 mm 0.00 in0.0 mm 0.00 in0.0 mm
03:06 PM 66.0°F18.9°C 50.7°F10.4°C 58% 11.0 mph S17.7 kmh S 16.0 mph25.7 kmh 30.12 in1020.0 mb 0.00 in0.0 mm 0.00 in0.0 mm 0.00 in0.0 mm
03:09 PM 65.8°F18.8°C 50.2°F10.1°C 57% 11.0 mph S17.7 kmh S 16.0 mph25.7 kmh 30.12 in1020.0 mb 0.00 in0.0 mm 0.00 in0.0 mm 0.00 in0.0 mm
03:12 PM 65.8°F18.8°C 50.5°F10.3°C 58% 11.0 mph S17.7 kmh S 16.0 mph25.7 kmh 30.12 in1020.0 mb 0.00 in0.0 mm 0.00 in0.0 mm 0.00 in0.0 mm
03:15 PM 65.8°F18.8°C 51.1°F10.6°C 59% 11.0 mph S17.7 kmh S 16.0 mph25.7 kmh 30.12 in1020.0 mb 0.00 in0.0 mm 0.00 in0.0 mm 0.00 in0.0 mm
03:18 PM 65.8°F18.8°C 51.4°F10.8°C 60% 11.0 mph S17.7 kmh S 15.0 mph24.1 kmh 30.12 in1020.0 mb 0.00 in0.0 mm 0.00 in0.0 mm 0.00 in0.0 mm
03:21 PM 65.8°F18.8°C 51.4°F10.8°C 60% 11.0 mph S17.7 kmh S 15.0 mph24.1 kmh 30.12 in1020.0 mb 0.00 in0.0 mm 0.00 in0.0 mm 0.00 in0.0 mm
03:24 PM 65.8°F18.8°C 51.1°F10.6°C 59% 10.0 mph S16.1 kmh S 15.0 mph24.1 kmh 30.12 in1020.0 mb 0.00 in0.0 mm 0.00 in0.0 mm 0.00 in0.0 mm
03:27 PM 65.7°F18.7°C 50.5°F10.3°C 58% 10.0 mph S16.1 kmh S 15.0 mph24.1 kmh 30.12 in1020.0 mb 0.00 in0.0 mm 0.00 in0.0 mm 0.00 in0.0 mm
03:30 PM 65.7°F18.7°C 50.9°F10.5°C 59% 9.0 mph S14.5 kmh S 15.0 mph24.1 kmh 30.12 in1020.0 mb 0.00 in0.0 mm 0.00 in0.0 mm 0.00 in0.0 mm
03:33 PM 65.7°F18.7°C 51.3°F10.7°C 60% 10.0 mph S16.1 kmh S 15.0 mph24.1 kmh 30.12 in1020.0 mb 0.00 in0.0 mm 0.00 in0.0 mm 0.00 in0.0 mm
03:36 PM 65.7°F18.7°C 50.9°F10.5°C 59% 9.0 mph S14.5 kmh S 14.0 mph22.5 kmh 30.12 in1020.0 mb 0.00 in0.0 mm 0.00 in0.0 mm 0.00 in0.0 mm
03:39 PM 65.5°F18.6°C 50.7°F10.4°C 59% 9.0 mph S14.5 kmh S 13.0 mph20.9 kmh 30.12 in1020.0 mb 0.00 in0.0 mm 0.00 in0.0 mm 0.00 in0.0 mm
03:42 PM 65.3°F18.5°C 50.2°F10.1°C 58% 8.0 mph S12.9 kmh S 14.0 mph22.5 kmh 30.12 in1020.0 mb 0.00 in0.0 mm 0.00 in0.0 mm 0.00 in0.0 mm
03:45 PM 65.3°F18.5°C 50.5°F10.3°C 59% 8.0 mph S12.9 kmh S 14.0 mph22.5 kmh 30.12 in1020.0 mb 0.00 in0.0 mm 0.00 in0.0 mm 0.00 in0.0 mm
03:48 PM 65.1°F18.4°C 50.0°F10.0°C 58% 9.0 mph S14.5 kmh S 14.0 mph22.5 kmh 30.12 in1020.0 mb 0.00 in0.0 mm 0.00 in0.0 mm 0.00 in0.0 mm
03:51 PM 65.1°F18.4°C 50.5°F10.3°C 59% 8.0 mph S12.9 kmh S 14.0 mph22.5 kmh 30.12 in1020.0 mb 0.00 in0.0 mm 0.00 in0.0 mm 0.00 in0.0 mm
03:54 PM 65.1°F18.4°C 50.5°F10.3°C 59% 8.0 mph S12.9 kmh S 14.0 mph22.5 kmh 30.11 in1019.6 mb 0.00 in0.0 mm 0.00 in0.0 mm 0.00 in0.0 mm
03:57 PM 65.1°F18.4°C 49.5°F9.7°C 57% 9.0 mph S14.5 kmh S 16.0 mph25.7 kmh 30.11 in1019.6 mb 0.00 in0.0 mm 0.00 in0.0 mm 0.00 in0.0 mm
04:00 PM 65.1°F18.4°C 50.4°F10.2°C 59% 10.0 mph S16.1 kmh S 16.0 mph25.7 kmh 30.11 in1019.6 mb 0.00 in0.0 mm 0.00 in0.0 mm 0.00 in0.0 mm
04:03 PM 65.1°F18.4°C 50.0°F10.0°C 58% 11.0 mph S17.7 kmh S 16.0 mph25.7 kmh 30.11 in1019.6 mb 0.00 in0.0 mm 0.00 in0.0 mm 0.00 in0.0 mm
04:06 PM 64.9°F18.3°C 49.8°F9.9°C 58% 11.0 mph S17.7 kmh S 18.0 mph29.0 kmh 30.11 in1019.6 mb 0.00 in0.0 mm 0.00 in0.0 mm 0.00 in0.0 mm
04:09 PM 65.1°F18.4°C 50.0°F10.0°C 58% 10.0 mph S16.1 kmh S 18.0 mph29.0 kmh 30.11 in1019.6 mb 0.00 in0.0 mm 0.00 in0.0 mm 0.00 in0.0 mm
04:12 PM 64.9°F18.3°C 49.8°F9.9°C 58% 11.0 mph S17.7 kmh S 18.0 mph29.0 kmh 30.11 in1019.6 mb 0.00 in0.0 mm 0.00 in0.0 mm 0.00 in0.0 mm
04:15 PM 64.9°F18.3°C 49.8°F9.9°C 58% 10.0 mph S16.1 kmh S 16.0 mph25.7 kmh 30.11 in1019.6 mb 0.00 in0.0 mm 0.00 in0.0 mm 0.00 in0.0 mm
04:18 PM 64.8°F18.2°C 49.1°F9.5°C 57% 11.0 mph S17.7 kmh S 16.0 mph25.7 kmh 30.11 in1019.6 mb 0.00 in0.0 mm 0.00 in0.0 mm 0.00 in0.0 mm
04:21 PM 64.6°F18.1°C 49.5°F9.7°C 58% 11.0 mph S17.7 kmh S 16.0 mph25.7 kmh 30.11 in1019.6 mb 0.00 in0.0 mm 0.00 in0.0 mm 0.00 in0.0 mm
04:24 PM 64.2°F17.9°C 49.3°F9.6°C 58% 12.0 mph S19.3 kmh S 16.0 mph25.7 kmh 30.11 in1019.6 mb 0.00 in0.0 mm 0.00 in0.0 mm 0.00 in0.0 mm
04:27 PM 64.0°F17.8°C 49.1°F9.5°C 58% 11.0 mph S17.7 kmh S 15.0 mph24.1 kmh 30.11 in1019.6 mb 0.00 in0.0 mm 0.00 in0.0 mm 0.00 in0.0 mm
04:30 PM 64.0°F17.8°C 49.5°F9.7°C 59% 11.0 mph S17.7 kmh S 15.0 mph24.1 kmh 30.11 in1019.6 mb 0.00 in0.0 mm 0.00 in0.0 mm 0.00 in0.0 mm
04:33 PM 64.0°F17.8°C 48.9°F9.4°C 58% 11.0 mph S17.7 kmh S 15.0 mph24.1 kmh 30.11 in1019.6 mb 0.00 in0.0 mm 0.00 in0.0 mm 0.00 in0.0 mm
04:36 PM 64.0°F17.8°C 50.0°F10.0°C 60% 10.0 mph S16.1 kmh S 15.0 mph24.1 kmh 30.11 in1019.6 mb 0.00 in0.0 mm 0.00 in0.0 mm 0.00 in0.0 mm
04:39 PM 64.2°F17.9°C 49.6°F9.8°C 59% 9.0 mph S14.5 kmh S 15.0 mph24.1 kmh 30.11 in1019.6 mb 0.00 in0.0 mm 0.00 in0.0 mm 0.00 in0.0 mm
04:42 PM 64.0°F17.8°C 49.5°F9.7°C 59% 9.0 mph S14.5 kmh S 15.0 mph24.1 kmh 30.11 in1019.6 mb 0.00 in0.0 mm 0.00 in0.0 mm 0.00 in0.0 mm
04:45 PM 64.0°F17.8°C 49.8°F9.9°C 60% 9.0 mph S14.5 kmh S 15.0 mph24.1 kmh 30.11 in1019.6 mb 0.00 in0.0 mm 0.00 in0.0 mm 0.00 in0.0 mm
04:48 PM 63.9°F17.7°C 50.2°F10.1°C 61% 9.0 mph S14.5 kmh S 15.0 mph24.1 kmh 30.11 in1019.6 mb 0.00 in0.0 mm 0.00 in0.0 mm 0.00 in0.0 mm
04:51 PM 63.9°F17.7°C 49.6°F9.8°C 60% 7.0 mph S11.3 kmh S 15.0 mph24.1 kmh 30.11 in1019.6 mb 0.00 in0.0 mm 0.00 in0.0 mm 0.00 in0.0 mm
04:54 PM 63.7°F17.6°C 49.5°F9.7°C 60% 7.0 mph S11.3 kmh S 12.0 mph19.3 kmh 30.11 in1019.6 mb 0.00 in0.0 mm 0.00 in0.0 mm 0.00 in0.0 mm
04:57 PM 63.3°F17.4°C 49.3°F9.6°C 60% 7.0 mph S11.3 kmh S 14.0 mph22.5 kmh 30.11 in1019.6 mb 0.00 in0.0 mm 0.00 in0.0 mm 0.00 in0.0 mm
05:00 PM 63.3°F17.4°C 49.6°F9.8°C 61% 7.0 mph S11.3 kmh S 14.0 mph22.5 kmh 30.11 in1019.6 mb 0.00 in0.0 mm 0.00 in0.0 mm 0.00 in0.0 mm
05:03 PM 63.1°F17.3°C 48.6°F9.2°C 59% 8.0 mph S12.9 kmh S 14.0 mph22.5 kmh 30.11 in1019.6 mb 0.00 in0.0 mm 0.00 in0.0 mm 0.00 in0.0 mm
05:06 PM 63.0°F17.2°C 48.9°F9.4°C 60% 6.0 mph S9.7 kmh S 12.0 mph19.3 kmh 30.11 in1019.6 mb 0.00 in0.0 mm 0.00 in0.0 mm 0.00 in0.0 mm
05:09 PM 63.0°F17.2°C 48.9°F9.4°C 60% 6.0 mph S9.7 kmh S 12.0 mph19.3 kmh 30.11 in1019.6 mb 0.00 in0.0 mm 0.00 in0.0 mm 0.00 in0.0 mm
05:12 PM 63.1°F17.3°C 49.5°F9.7°C 61% 6.0 mph S9.7 kmh S 11.0 mph17.7 kmh 30.11 in1019.6 mb 0.00 in0.0 mm 0.00 in0.0 mm 0.00 in0.0 mm
05:15 PM 63.0°F17.2°C 48.9°F9.4°C 60% 6.0 mph S9.7 kmh S 12.0 mph19.3 kmh 30.11 in1019.6 mb 0.00 in0.0 mm 0.00 in0.0 mm 0.00 in0.0 mm
05:18 PM 63.0°F17.2°C 48.4°F9.1°C 59% 6.0 mph S9.7 kmh S 12.0 mph19.3 kmh 30.11 in1019.6 mb 0.00 in0.0 mm 0.00 in0.0 mm 0.00 in0.0 mm
05:21 PM 62.8°F17.1°C 48.7°F9.3°C 60% 5.0 mph S8.0 kmh S 12.0 mph19.3 kmh 30.11 in1019.6 mb 0.00 in0.0 mm 0.00 in0.0 mm 0.00 in0.0 mm
05:24 PM 62.6°F17.0°C 48.6°F9.2°C 60% 4.0 mph SSW6.4 kmh SSW 9.0 mph14.5 kmh 30.11 in1019.6 mb 0.00 in0.0 mm 0.00 in0.0 mm 0.00 in0.0 mm
05:27 PM 62.4°F16.9°C 47.8°F8.8°C 59% 5.0 mph SSW8.0 kmh SSW 12.0 mph19.3 kmh 30.11 in1019.6 mb 0.00 in0.0 mm 0.00 in0.0 mm 0.00 in0.0 mm
05:30 PM 62.2°F16.8°C 48.2°F9.0°C 60% 5.0 mph SSW8.0 kmh SSW 12.0 mph19.3 kmh 30.11 in1019.6 mb 0.00 in0.0 mm 0.00 in0.0 mm 0.00 in0.0 mm
05:33 PM 62.1°F16.7°C 48.0°F8.9°C 60% 5.0 mph SSW8.0 kmh SSW 12.0 mph19.3 kmh 30.12 in1020.0 mb 0.00 in0.0 mm 0.00 in0.0 mm 0.00 in0.0 mm
05:36 PM 61.9°F16.6°C 47.8°F8.8°C 60% 6.0 mph SSW9.7 kmh SSW 12.0 mph19.3 kmh 30.11 in1019.6 mb 0.00 in0.0 mm 0.00 in0.0 mm 0.00 in0.0 mm
05:39 PM 61.7°F16.5°C 47.3°F8.5°C 59% 6.0 mph S9.7 kmh S 12.0 mph19.3 kmh 30.11 in1019.6 mb 0.00 in0.0 mm 0.00 in0.0 mm 0.00 in0.0 mm
05:42 PM 61.5°F16.4°C 47.7°F8.7°C 60% 6.0 mph S9.7 kmh S 12.0 mph19.3 kmh 30.11 in1019.6 mb 0.00 in0.0 mm 0.00 in0.0 mm 0.00 in0.0 mm
05:45 PM 61.3°F16.3°C 47.3°F8.5°C 60% 6.0 mph S9.7 kmh S 11.0 mph17.7 kmh 30.12 in1020.0 mb 0.00 in0.0 mm 0.00 in0.0 mm 0.00 in0.0 mm
05:48 PM 61.0°F16.1°C 46.9°F8.3°C 60% 5.0 mph S8.0 kmh S 10.0 mph16.1 kmh 30.11 in1019.6 mb 0.00 in0.0 mm 0.00 in0.0 mm 0.00 in0.0 mm
05:51 PM 60.6°F15.9°C 46.8°F8.2°C 60% 6.0 mph S9.7 kmh S 10.0 mph16.1 kmh 30.11 in1019.6 mb 0.00 in0.0 mm 0.00 in0.0 mm 0.00 in0.0 mm
05:54 PM 60.6°F15.9°C 46.6°F8.1°C 60% 6.0 mph S9.7 kmh S 11.0 mph17.7 kmh 30.11 in1019.6 mb 0.00 in0.0 mm 0.00 in0.0 mm 0.00 in0.0 mm
05:57 PM 60.4°F15.8°C 46.9°F8.3°C 61% 6.0 mph S9.7 kmh S 11.0 mph17.7 kmh 30.11 in1019.6 mb 0.00 in0.0 mm 0.00 in0.0 mm 0.00 in0.0 mm
06:00 PM 60.4°F15.8°C 46.4°F8.0°C 60% 6.0 mph S9.7 kmh S 11.0 mph17.7 kmh 30.11 in1019.6 mb 0.00 in0.0 mm 0.00 in0.0 mm 0.00 in0.0 mm
06:03 PM 60.1°F15.6°C 45.7°F7.6°C 59% 6.0 mph S9.7 kmh S 11.0 mph17.7 kmh 30.11 in1019.6 mb 0.00 in0.0 mm 0.00 in0.0 mm 0.00 in0.0 mm
06:06 PM 59.9°F15.5°C 46.0°F7.8°C 60% 6.0 mph S9.7 kmh S 11.0 mph17.7 kmh 30.11 in1019.6 mb 0.00 in0.0 mm 0.00 in0.0 mm 0.00 in0.0 mm
06:09 PM 59.5°F15.3°C 45.7°F7.6°C 60% 6.0 mph S9.7 kmh S 12.0 mph19.3 kmh 30.11 in1019.6 mb 0.00 in0.0 mm 0.00 in0.0 mm 0.00 in0.0 mm
06:12 PM 59.4°F15.2°C 45.3°F7.4°C 60% 6.0 mph S9.7 kmh S 12.0 mph19.3 kmh 30.11 in1019.6 mb 0.00 in0.0 mm 0.00 in0.0 mm 0.00 in0.0 mm
06:15 PM 59.0°F15.0°C 45.5°F7.5°C 61% 6.0 mph S9.7 kmh S 12.0 mph19.3 kmh 30.11 in1019.6 mb 0.00 in0.0 mm 0.00 in0.0 mm 0.00 in0.0 mm
06:18 PM 58.6°F14.8°C 45.3°F7.4°C 61% 6.0 mph S9.7 kmh S 12.0 mph19.3 kmh 30.11 in1019.6 mb 0.00 in0.0 mm 0.00 in0.0 mm 0.00 in0.0 mm
06:21 PM 58.5°F14.7°C 45.5°F7.5°C 62% 6.0 mph S9.7 kmh S 12.0 mph19.3 kmh 30.11 in1019.6 mb 0.00 in0.0 mm 0.00 in0.0 mm 0.00 in0.0 mm
06:24 PM 58.3°F14.6°C 45.3°F7.4°C 62% 5.0 mph S8.0 kmh S 10.0 mph16.1 kmh 30.11 in1019.6 mb 0.00 in0.0 mm 0.00 in0.0 mm 0.00 in0.0 mm
06:27 PM 58.1°F14.5°C 45.5°F7.5°C 63% 4.0 mph S6.4 kmh S 10.0 mph16.1 kmh 30.11 in1019.6 mb 0.00 in0.0 mm 0.00 in0.0 mm 0.00 in0.0 mm
06:30 PM 58.1°F14.5°C 46.0°F7.8°C 64% 5.0 mph SSW8.0 kmh SSW 10.0 mph16.1 kmh 30.11 in1019.6 mb 0.00 in0.0 mm 0.00 in0.0 mm 0.00 in0.0 mm
06:33 PM 57.9°F14.4°C 46.2°F7.9°C 65% 4.0 mph SSW6.4 kmh SSW 10.0 mph16.1 kmh 30.11 in1019.6 mb 0.00 in0.0 mm 0.00 in0.0 mm 0.00 in0.0 mm
06:36 PM 57.9°F14.4°C 46.2°F7.9°C 65% 4.0 mph SW6.4 kmh SW 9.0 mph14.5 kmh 30.11 in1019.6 mb 0.00 in0.0 mm 0.00 in0.0 mm 0.00 in0.0 mm
06:39 PM 57.7°F14.3°C 46.0°F7.8°C 65% 4.0 mph SW6.4 kmh SW 11.0 mph17.7 kmh 30.11 in1019.6 mb 0.00 in0.0 mm 0.00 in0.0 mm 0.00 in0.0 mm
06:42 PM 57.6°F14.2°C 45.9°F7.7°C 65% 5.0 mph SW8.0 kmh SW 11.0 mph17.7 kmh 30.11 in1019.6 mb 0.00 in0.0 mm 0.00 in0.0 mm 0.00 in0.0 mm
06:45 PM 57.4°F14.1°C 45.7°F7.6°C 65% 5.0 mph SW8.0 kmh SW 11.0 mph17.7 kmh 30.11 in1019.6 mb 0.00 in0.0 mm 0.00 in0.0 mm 0.00 in0.0 mm
06:48 PM 57.4°F14.1°C 46.0°F7.8°C 66% 5.0 mph SW8.0 kmh SW 10.0 mph16.1 kmh 30.11 in1019.6 mb 0.00 in0.0 mm 0.00 in0.0 mm 0.00 in0.0 mm
06:51 PM 57.2°F14.0°C 45.9°F7.7°C 66% 4.0 mph SW6.4 kmh SW 10.0 mph16.1 kmh 30.11 in1019.6 mb 0.00 in0.0 mm 0.00 in0.0 mm 0.00 in0.0 mm
06:54 PM 57.0°F13.9°C 45.5°F7.5°C 65% 4.0 mph SW6.4 kmh SW 10.0 mph16.1 kmh 30.11 in1019.6 mb 0.00 in0.0 mm 0.00 in0.0 mm 0.00 in0.0 mm
06:57 PM 57.0°F13.9°C 45.3°F7.4°C 65% 4.0 mph SW6.4 kmh SW 10.0 mph16.1 kmh 30.11 in1019.6 mb 0.00 in0.0 mm 0.00 in0.0 mm 0.00 in0.0 mm
07:00 PM 56.8°F13.8°C 44.8°F7.1°C 64% 4.0 mph SW6.4 kmh SW 10.0 mph16.1 kmh 30.11 in1019.6 mb 0.00 in0.0 mm 0.00 in0.0 mm 0.00 in0.0 mm
07:03 PM 56.7°F13.7°C 44.6°F7.0°C 64% 4.0 mph SW6.4 kmh SW 10.0 mph16.1 kmh 30.11 in1019.6 mb 0.00 in0.0 mm 0.00 in0.0 mm 0.00 in0.0 mm
07:06 PM 56.5°F13.6°C 44.4°F6.9°C 64% 4.0 mph SSW6.4 kmh SSW 10.0 mph16.1 kmh 30.11 in1019.6 mb 0.00 in0.0 mm 0.00 in0.0 mm 0.00 in0.0 mm
07:09 PM 56.5°F13.6°C 44.4°F6.9°C 64% 3.0 mph SSW4.8 kmh SSW 7.0 mph11.3 kmh 30.11 in1019.6 mb 0.00 in0.0 mm 0.00 in0.0 mm 0.00 in0.0 mm
07:12 PM 56.3°F13.5°C 43.9°F6.6°C 63% 3.0 mph SW4.8 kmh SW 7.0 mph11.3 kmh 30.12 in1020.0 mb 0.00 in0.0 mm 0.00 in0.0 mm 0.00 in0.0 mm
07:15 PM 56.3°F13.5°C 44.2°F6.8°C 64% 3.0 mph SW4.8 kmh SW 7.0 mph11.3 kmh 30.12 in1020.0 mb 0.00 in0.0 mm 0.00 in0.0 mm 0.00 in0.0 mm
07:18 PM 56.1°F13.4°C 44.2°F6.8°C 64% 3.0 mph SSW4.8 kmh SSW 7.0 mph11.3 kmh 30.12 in1020.0 mb 0.00 in0.0 mm 0.00 in0.0 mm 0.00 in0.0 mm
07:21 PM 56.1°F13.4°C 43.7°F6.5°C 63% 3.0 mph SW4.8 kmh SW 7.0 mph11.3 kmh 30.11 in1019.6 mb 0.00 in0.0 mm 0.00 in0.0 mm 0.00 in0.0 mm
07:24 PM 55.9°F13.3°C 44.1°F6.7°C 64% 3.0 mph SSW4.8 kmh SSW 7.0 mph11.3 kmh 30.11 in1019.6 mb 0.00 in0.0 mm 0.00 in0.0 mm 0.00 in0.0 mm
07:27 PM 55.8°F13.2°C 43.9°F6.6°C 64% 3.0 mph SSW4.8 kmh SSW 7.0 mph11.3 kmh 30.12 in1020.0 mb 0.00 in0.0 mm 0.00 in0.0 mm 0.00 in0.0 mm
07:30 PM 55.8°F13.2°C 43.7°F6.5°C 64% 3.0 mph SW4.8 kmh SW 8.0 mph12.9 kmh 30.12 in1020.0 mb 0.00 in0.0 mm 0.00 in0.0 mm 0.00 in0.0 mm
07:33 PM 55.6°F13.1°C 44.1°F6.7°C 65% 3.0 mph SW4.8 kmh SW 8.0 mph12.9 kmh 30.12 in1020.0 mb 0.00 in0.0 mm 0.00 in0.0 mm 0.00 in0.0 mm
07:36 PM 55.6°F13.1°C 44.2°F6.8°C 66% 3.0 mph SW4.8 kmh SW 9.0 mph14.5 kmh 30.12 in1020.0 mb 0.00 in0.0 mm 0.00 in0.0 mm 0.00 in0.0 mm
07:39 PM 55.2°F12.9°C 44.1°F6.7°C 66% 4.0 mph SW6.4 kmh SW 9.0 mph14.5 kmh 30.12 in1020.0 mb 0.00 in0.0 mm 0.00 in0.0 mm 0.00 in0.0 mm
07:42 PM 55.2°F12.9°C 44.1°F6.7°C 66% 4.0 mph SW6.4 kmh SW 9.0 mph14.5 kmh 30.12 in1020.0 mb 0.00 in0.0 mm 0.00 in0.0 mm 0.00 in0.0 mm
07:45 PM 55.0°F12.8°C 44.2°F6.8°C 67% 3.0 mph SW4.8 kmh SW 8.0 mph12.9 kmh 30.12 in1020.0 mb 0.00 in0.0 mm 0.00 in0.0 mm 0.00 in0.0 mm
07:48 PM 54.9°F12.7°C 44.1°F6.7°C 67% 3.0 mph SW4.8 kmh SW 8.0 mph12.9 kmh 30.12 in1020.0 mb 0.00 in0.0 mm 0.00 in0.0 mm 0.00 in0.0 mm
07:51 PM 54.9°F12.7°C 44.1°F6.7°C 67% 2.0 mph SW3.2 kmh SW 6.0 mph9.7 kmh 30.12 in1020.0 mb 0.00 in0.0 mm 0.00 in0.0 mm 0.00 in0.0 mm
07:54 PM 54.7°F12.6°C 44.4°F6.9°C 68% 3.0 mph SW4.8 kmh SW 7.0 mph11.3 kmh 30.12 in1020.0 mb 0.00 in0.0 mm 0.00 in0.0 mm 0.00 in0.0 mm
07:57 PM 54.7°F12.6°C 44.6°F7.0°C 69% 2.0 mph SW3.2 kmh SW 7.0 mph11.3 kmh 30.12 in1020.0 mb 0.00 in0.0 mm 0.00 in0.0 mm 0.00 in0.0 mm
08:00 PM 54.3°F12.4°C 44.4°F6.9°C 69% 2.0 mph SW3.2 kmh SW 7.0 mph11.3 kmh 30.12 in1020.0 mb 0.00 in0.0 mm 0.00 in0.0 mm 0.00 in0.0 mm
08:03 PM 54.3°F12.4°C 44.8°F7.1°C 70% 3.0 mph SW4.8 kmh SW 9.0 mph14.5 kmh 30.12 in1020.0 mb 0.00 in0.0 mm 0.00 in0.0 mm 0.00 in0.0 mm
08:06 PM 54.1°F12.3°C 44.6°F7.0°C 70% 3.0 mph SW4.8 kmh SW 9.0 mph14.5 kmh 30.12 in1020.0 mb 0.00 in0.0 mm 0.00 in0.0 mm 0.00 in0.0 mm
08:09 PM 54.0°F12.2°C 44.4°F6.9°C 70% 3.0 mph SW4.8 kmh SW 9.0 mph14.5 kmh 30.12 in1020.0 mb 0.00 in0.0 mm 0.00 in0.0 mm 0.00 in0.0 mm
08:12 PM 53.8°F12.1°C 44.6°F7.0°C 71% 3.0 mph SW4.8 kmh SW 9.0 mph14.5 kmh 30.12 in1020.0 mb 0.00 in0.0 mm 0.00 in0.0 mm 0.00 in0.0 mm
08:15 PM 53.8°F12.1°C 45.0°F7.2°C 72% 3.0 mph SW4.8 kmh SW 8.0 mph12.9 kmh 30.12 in1020.0 mb 0.00 in0.0 mm 0.00 in0.0 mm 0.00 in0.0 mm
08:18 PM 53.4°F11.9°C 44.8°F7.1°C 72% 3.0 mph SW4.8 kmh SW 9.0 mph14.5 kmh 30.12 in1020.0 mb 0.00 in0.0 mm 0.00 in0.0 mm 0.00 in0.0 mm
08:21 PM 53.2°F11.8°C 44.8°F7.1°C 73% 3.0 mph SW4.8 kmh SW 9.0 mph14.5 kmh 30.12 in1020.0 mb 0.00 in0.0 mm 0.00 in0.0 mm 0.00 in0.0 mm
08:24 PM 53.2°F11.8°C 44.8°F7.1°C 73% 3.0 mph SW4.8 kmh SW 9.0 mph14.5 kmh 30.12 in1020.0 mb 0.00 in0.0 mm 0.00 in0.0 mm 0.00 in0.0 mm
08:27 PM 53.1°F11.7°C 45.0°F7.2°C 74% 3.0 mph SW4.8 kmh SW 9.0 mph14.5 kmh 30.12 in1020.0 mb 0.00 in0.0 mm 0.00 in0.0 mm 0.00 in0.0 mm
08:30 PM 53.1°F11.7°C 45.3°F7.4°C 75% 3.0 mph SW4.8 kmh SW 7.0 mph11.3 kmh 30.12 in1020.0 mb 0.00 in0.0 mm 0.00 in0.0 mm 0.00 in0.0 mm
08:33 PM 53.1°F11.7°C 45.3°F7.4°C 75% 3.0 mph SW4.8 kmh SW 9.0 mph14.5 kmh 30.12 in1020.0 mb 0.00 in0.0 mm 0.00 in0.0 mm 0.00 in0.0 mm
08:36 PM 52.9°F11.6°C 45.1°F7.3°C 75% 3.0 mph SW4.8 kmh SW 9.0 mph14.5 kmh 30.12 in1020.0 mb 0.00 in0.0 mm 0.00 in0.0 mm 0.00 in0.0 mm
08:39 PM 52.9°F11.6°C 45.5°F7.5°C 76% 3.0 mph SW4.8 kmh SW 9.0 mph14.5 kmh 30.12 in1020.0 mb 0.00 in0.0 mm 0.00 in0.0 mm 0.00 in0.0 mm
08:42 PM 52.7°F11.5°C 45.3°F7.4°C 76% 4.0 mph SW6.4 kmh SW 9.0 mph14.5 kmh 30.12 in1020.0 mb 0.00 in0.0 mm 0.00 in0.0 mm 0.00 in0.0 mm
08:45 PM 52.5°F11.4°C 45.5°F7.5°C 77% 3.0 mph SW4.8 kmh SW 9.0 mph14.5 kmh 30.12 in1020.0 mb 0.00 in0.0 mm 0.00 in0.0 mm 0.00 in0.0 mm
08:48 PM 52.3°F11.3°C 45.3°F7.4°C 77% 4.0 mph SW6.4 kmh SW 9.0 mph14.5 kmh 30.12 in1020.0 mb 0.00 in0.0 mm 0.00 in0.0 mm 0.00 in0.0 mm
08:51 PM 52.3°F11.3°C 45.3°F7.4°C 77% 4.0 mph SW6.4 kmh SW 9.0 mph14.5 kmh 30.12 in1020.0 mb 0.00 in0.0 mm 0.00 in0.0 mm 0.00 in0.0 mm
08:54 PM 52.2°F11.2°C 45.5°F7.5°C 78% 4.0 mph SW6.4 kmh SW 10.0 mph16.1 kmh 30.13 in1020.3 mb 0.00 in0.0 mm 0.00 in0.0 mm 0.00 in0.0 mm
08:57 PM 52.0°F11.1°C 45.3°F7.4°C 78% 5.0 mph SW8.0 kmh SW 10.0 mph16.1 kmh 30.12 in1020.0 mb 0.00 in0.0 mm 0.00 in0.0 mm 0.00 in0.0 mm
09:00 PM 52.0°F11.1°C 45.7°F7.6°C 79% 4.0 mph SW6.4 kmh SW 10.0 mph16.1 kmh 30.12 in1020.0 mb 0.00 in0.0 mm 0.00 in0.0 mm 0.00 in0.0 mm
09:03 PM 51.8°F11.0°C 45.5°F7.5°C 79% 4.0 mph SW6.4 kmh SW 10.0 mph16.1 kmh 30.12 in1020.0 mb 0.00 in0.0 mm 0.00 in0.0 mm 0.00 in0.0 mm
09:06 PM 51.6°F10.9°C 45.7°F7.6°C 80% 4.0 mph SW6.4 kmh SW 9.0 mph14.5 kmh 30.12 in1020.0 mb 0.00 in0.0 mm 0.00 in0.0 mm 0.00 in0.0 mm
09:09 PM 51.6°F10.9°C 45.7°F7.6°C 80% 4.0 mph SW6.4 kmh SW 8.0 mph12.9 kmh 30.12 in1020.0 mb 0.00 in0.0 mm 0.00 in0.0 mm 0.00 in0.0 mm
09:12 PM 51.4°F10.8°C 45.5°F7.5°C 80% 4.0 mph SW6.4 kmh SW 8.0 mph12.9 kmh 30.13 in1020.3 mb 0.00 in0.0 mm 0.00 in0.0 mm 0.00 in0.0 mm
09:15 PM 51.3°F10.7°C 45.3°F7.4°C 80% 3.0 mph SW4.8 kmh SW 8.0 mph12.9 kmh 30.13 in1020.3 mb 0.00 in0.0 mm 0.00 in0.0 mm 0.00 in0.0 mm
09:18 PM 51.3°F10.7°C 45.5°F7.5°C 81% 3.0 mph SW4.8 kmh SW 8.0 mph12.9 kmh 30.13 in1020.3 mb 0.00 in0.0 mm 0.00 in0.0 mm 0.00 in0.0 mm
09:21 PM 51.3°F10.7°C 45.5°F7.5°C 81% 3.0 mph SW4.8 kmh SW 7.0 mph11.3 kmh 30.13 in1020.3 mb 0.00 in0.0 mm 0.00 in0.0 mm 0.00 in0.0 mm
09:24 PM 51.3°F10.7°C 45.5°F7.5°C 81% 3.0 mph SW4.8 kmh SW 8.0 mph12.9 kmh 30.13 in1020.3 mb 0.00 in0.0 mm 0.00 in0.0 mm 0.00 in0.0 mm
09:27 PM 51.3°F10.7°C 45.5°F7.5°C 81% 3.0 mph SW4.8 kmh SW 8.0 mph12.9 kmh 30.13 in1020.3 mb 0.00 in0.0 mm 0.00 in0.0 mm 0.00 in0.0 mm
09:30 PM 51.3°F10.7°C 45.5°F7.5°C 81% 3.0 mph SW4.8 kmh SW 8.0 mph12.9 kmh 30.13 in1020.3 mb 0.00 in0.0 mm 0.00 in0.0 mm 0.00 in0.0 mm
09:33 PM 51.3°F10.7°C 45.5°F7.5°C 81% 3.0 mph SW4.8 kmh SW 7.0 mph11.3 kmh 30.13 in1020.3 mb 0.00 in0.0 mm 0.00 in0.0 mm 0.00 in0.0 mm
09:36 PM 51.3°F10.7°C 45.5°F7.5°C 81% 2.0 mph SW3.2 kmh SW 5.0 mph8.0 kmh 30.13 in1020.3 mb 0.00 in0.0 mm 0.00 in0.0 mm 0.00 in0.0 mm
09:39 PM 51.3°F10.7°C 45.5°F7.5°C 81% 2.0 mph SW3.2 kmh SW 5.0 mph8.0 kmh 30.13 in1020.3 mb 0.00 in0.0 mm 0.00 in0.0 mm 0.00 in0.0 mm
09:42 PM 51.3°F10.7°C 45.5°F7.5°C 81% 3.0 mph SW4.8 kmh SW 7.0 mph11.3 kmh 30.13 in1020.3 mb 0.00 in0.0 mm 0.00 in0.0 mm 0.00 in0.0 mm
09:45 PM 51.3°F10.7°C 45.5°F7.5°C 81% 3.0 mph SW4.8 kmh SW 7.0 mph11.3 kmh 30.13 in1020.3 mb 0.00 in0.0 mm 0.00 in0.0 mm 0.00 in0.0 mm
09:48 PM 51.3°F10.7°C 45.5°F7.5°C 81% 3.0 mph SW4.8 kmh SW 7.0 mph11.3 kmh 30.13 in1020.3 mb 0.00 in0.0 mm 0.00 in0.0 mm 0.00 in0.0 mm
09:51 PM 51.3°F10.7°C 45.5°F7.5°C 81% 3.0 mph SW4.8 kmh SW 8.0 mph12.9 kmh 30.13 in1020.3 mb 0.00 in0.0 mm 0.00 in0.0 mm 0.00 in0.0 mm
09:54 PM 51.3°F10.7°C 45.5°F7.5°C 81% 3.0 mph SW4.8 kmh SW 8.0 mph12.9 kmh 30.13 in1020.3 mb 0.00 in0.0 mm 0.00 in0.0 mm 0.00 in0.0 mm
09:57 PM 51.3°F10.7°C 45.5°F7.5°C 81% 4.0 mph SW6.4 kmh SW 8.0 mph12.9 kmh 30.13 in1020.3 mb 0.00 in0.0 mm 0.00 in0.0 mm 0.00 in0.0 mm
10:00 PM 51.3°F10.7°C 45.5°F7.5°C 81% 4.0 mph SW6.4 kmh SW 8.0 mph12.9 kmh 30.13 in1020.3 mb 0.00 in0.0 mm 0.00 in0.0 mm 0.00 in0.0 mm
10:03 PM 51.3°F10.7°C 45.5°F7.5°C 81% 4.0 mph WSW6.4 kmh WSW 8.0 mph12.9 kmh 30.13 in1020.3 mb 0.00 in0.0 mm 0.00 in0.0 mm 0.00 in0.0 mm
10:06 PM 51.3°F10.7°C 45.5°F7.5°C 81% 4.0 mph WSW6.4 kmh WSW 8.0 mph12.9 kmh 30.13 in1020.3 mb 0.00 in0.0 mm 0.00 in0.0 mm 0.00 in0.0 mm
10:09 PM 51.3°F10.7°C 45.5°F7.5°C 81% 4.0 mph WSW6.4 kmh WSW 8.0 mph12.9 kmh 30.13 in1020.3 mb 0.00 in0.0 mm 0.00 in0.0 mm 0.00 in0.0 mm
10:12 PM 51.3°F10.7°C 45.5°F7.5°C 81% 4.0 mph WSW6.4 kmh WSW 8.0 mph12.9 kmh 30.13 in1020.3 mb 0.00 in0.0 mm 0.00 in0.0 mm 0.00 in0.0 mm
10:15 PM 51.3°F10.7°C 45.5°F7.5°C 81% 4.0 mph WSW6.4 kmh WSW 8.0 mph12.9 kmh 30.12 in1020.0 mb 0.00 in0.0 mm 0.00 in0.0 mm 0.00 in0.0 mm
10:18 PM 51.3°F10.7°C 45.5°F7.5°C 81% 4.0 mph WSW6.4 kmh WSW 9.0 mph14.5 kmh 30.13 in1020.3 mb 0.00 in0.0 mm 0.00 in0.0 mm 0.00 in0.0 mm
10:21 PM 51.3°F10.7°C 45.5°F7.5°C 81% 4.0 mph WSW6.4 kmh WSW 9.0 mph14.5 kmh 30.13 in1020.3 mb 0.00 in0.0 mm 0.00 in0.0 mm 0.00 in0.0 mm
10:24 PM 51.3°F10.7°C 45.5°F7.5°C 81% 4.0 mph WSW6.4 kmh WSW 10.0 mph16.1 kmh 30.13 in1020.3 mb 0.00 in0.0 mm 0.00 in0.0 mm 0.00 in0.0 mm
10:27 PM 51.3°F10.7°C 45.5°F7.5°C 81% 4.0 mph SW6.4 kmh SW 10.0 mph16.1 kmh 30.13 in1020.3 mb 0.00 in0.0 mm 0.00 in0.0 mm 0.00 in0.0 mm
10:30 PM 51.3°F10.7°C 45.5°F7.5°C 81% 5.0 mph SW8.0 kmh SW 10.0 mph16.1 kmh 30.13 in1020.3 mb 0.00 in0.0 mm 0.00 in0.0 mm 0.00 in0.0 mm
10:33 PM 51.3°F10.7°C 45.5°F7.5°C 81% 5.0 mph WSW8.0 kmh WSW 9.0 mph14.5 kmh 30.12 in1020.0 mb 0.00 in0.0 mm 0.00 in0.0 mm 0.00 in0.0 mm
10:36 PM 51.3°F10.7°C 45.5°F7.5°C 81% 4.0 mph WSW6.4 kmh WSW 9.0 mph14.5 kmh 30.12 in1020.0 mb 0.00 in0.0 mm 0.00 in0.0 mm 0.00 in0.0 mm
10:39 PM 51.3°F10.7°C 45.5°F7.5°C 81% 4.0 mph WSW6.4 kmh WSW 9.0 mph14.5 kmh 30.12 in1020.0 mb 0.00 in0.0 mm 0.00 in0.0 mm 0.00 in0.0 mm
10:42 PM 51.3°F10.7°C 45.5°F7.5°C 81% 4.0 mph WSW6.4 kmh WSW 9.0 mph14.5 kmh 30.12 in1020.0 mb 0.00 in0.0 mm 0.00 in0.0 mm 0.00 in0.0 mm
10:45 PM 51.3°F10.7°C 45.5°F7.5°C 81% 3.0 mph WSW4.8 kmh WSW 10.0 mph16.1 kmh 30.12 in1020.0 mb 0.00 in0.0 mm 0.00 in0.0 mm 0.00 in0.0 mm
10:48 PM 51.3°F10.7°C 45.5°F7.5°C 81% 3.0 mph WSW4.8 kmh WSW 10.0 mph16.1 kmh 30.12 in1020.0 mb 0.00 in0.0 mm 0.00 in0.0 mm 0.00 in0.0 mm
10:51 PM 51.3°F10.7°C 45.5°F7.5°C 81% 3.0 mph WSW4.8 kmh WSW 10.0 mph16.1 kmh 30.12 in1020.0 mb 0.00 in0.0 mm 0.00 in0.0 mm 0.00 in0.0 mm
10:54 PM 51.3°F10.7°C 45.5°F7.5°C 81% 3.0 mph WSW4.8 kmh WSW 10.0 mph16.1 kmh 30.12 in1020.0 mb 0.00 in0.0 mm 0.00 in0.0 mm 0.00 in0.0 mm
10:57 PM 51.3°F10.7°C 45.5°F7.5°C 81% 3.0 mph WSW4.8 kmh WSW 8.0 mph12.9 kmh 30.12 in1020.0 mb 0.00 in0.0 mm 0.00 in0.0 mm 0.00 in0.0 mm
11:00 PM 51.3°F10.7°C 45.5°F7.5°C 81% 3.0 mph WSW4.8 kmh WSW 7.0 mph11.3 kmh 30.12 in1020.0 mb 0.00 in0.0 mm 0.00 in0.0 mm 0.00 in0.0 mm
11:03 PM 51.3°F10.7°C 45.5°F7.5°C 81% 4.0 mph WSW6.4 kmh WSW 7.0 mph11.3 kmh 30.12 in1020.0 mb 0.00 in0.0 mm 0.00 in0.0 mm 0.00 in0.0 mm
11:06 PM 51.3°F10.7°C 45.5°F7.5°C 81% 4.0 mph WSW6.4 kmh WSW 7.0 mph11.3 kmh 30.12 in1020.0 mb 0.00 in0.0 mm 0.00 in0.0 mm 0.00 in0.0 mm
11:09 PM 51.3°F10.7°C 45.5°F7.5°C 81% 3.0 mph WSW4.8 kmh WSW 7.0 mph11.3 kmh 30.12 in1020.0 mb 0.00 in0.0 mm 0.00 in0.0 mm 0.00 in0.0 mm
11:12 PM 51.3°F10.7°C 45.5°F7.5°C 81% 3.0 mph WSW4.8 kmh WSW 9.0 mph14.5 kmh 30.12 in1020.0 mb 0.00 in0.0 mm 0.00 in0.0 mm 0.00 in0.0 mm
11:15 PM 51.3°F10.7°C 45.5°F7.5°C 81% 3.0 mph WSW4.8 kmh WSW 9.0 mph14.5 kmh 30.12 in1020.0 mb 0.00 in0.0 mm 0.00 in0.0 mm 0.00 in0.0 mm
11:18 PM 51.3°F10.7°C 45.5°F7.5°C 81% 4.0 mph WSW6.4 kmh WSW 9.0 mph14.5 kmh 30.12 in1020.0 mb 0.00 in0.0 mm 0.00 in0.0 mm 0.00 in0.0 mm
11:21 PM 51.3°F10.7°C 45.5°F7.5°C 81% 4.0 mph WSW6.4 kmh WSW 9.0 mph14.5 kmh 30.12 in1020.0 mb 0.00 in0.0 mm 0.00 in0.0 mm 0.00 in0.0 mm
11:24 PM 51.3°F10.7°C 45.5°F7.5°C 81% 4.0 mph WSW6.4 kmh WSW 9.0 mph14.5 kmh 30.12 in1020.0 mb 0.00 in0.0 mm 0.00 in0.0 mm 0.00 in0.0 mm
11:27 PM 51.3°F10.7°C 45.5°F7.5°C 81% 4.0 mph WSW6.4 kmh WSW 9.0 mph14.5 kmh 30.12 in1020.0 mb 0.00 in0.0 mm 0.00 in0.0 mm 0.00 in0.0 mm
11:30 PM 51.3°F10.7°C 45.5°F7.5°C 81% 3.0 mph WSW4.8 kmh WSW 6.0 mph9.7 kmh 30.12 in1020.0 mb 0.00 in0.0 mm 0.00 in0.0 mm 0.00 in0.0 mm
11:33 PM 51.3°F10.7°C 45.5°F7.5°C 81% 3.0 mph WSW4.8 kmh WSW 8.0 mph12.9 kmh 30.12 in1020.0 mb 0.00 in0.0 mm 0.00 in0.0 mm 0.00 in0.0 mm
11:36 PM 51.3°F10.7°C 45.5°F7.5°C 81% 4.0 mph WSW6.4 kmh WSW 8.0 mph12.9 kmh 30.12 in1020.0 mb 0.00 in0.0 mm 0.00 in0.0 mm 0.00 in0.0 mm
11:39 PM 51.3°F10.7°C 45.5°F7.5°C 81% 4.0 mph WSW6.4 kmh WSW 9.0 mph14.5 kmh 30.12 in1020.0 mb 0.00 in0.0 mm 0.00 in0.0 mm 0.00 in0.0 mm
11:42 PM 51.3°F10.7°C 45.5°F7.5°C 81% 4.0 mph WSW6.4 kmh WSW 9.0 mph14.5 kmh 30.12 in1020.0 mb 0.00 in0.0 mm 0.00 in0.0 mm 0.00 in0.0 mm
11:45 PM 51.3°F10.7°C 45.5°F7.5°C 81% 4.0 mph WSW6.4 kmh WSW 9.0 mph14.5 kmh 30.12 in1020.0 mb 0.00 in0.0 mm 0.00 in0.0 mm 0.00 in0.0 mm
11:48 PM 51.3°F10.7°C 45.5°F7.5°C 81% 4.0 mph WSW6.4 kmh WSW 9.0 mph14.5 kmh 30.12 in1020.0 mb 0.00 in0.0 mm 0.00 in0.0 mm 0.00 in0.0 mm
11:51 PM 51.3°F10.7°C 45.5°F7.5°C 81% 4.0 mph WSW6.4 kmh WSW 9.0 mph14.5 kmh 30.12 in1020.0 mb 0.00 in0.0 mm 0.00 in0.0 mm 0.00 in0.0 mm
11:54 PM 51.3°F10.7°C 45.5°F7.5°C 81% 3.0 mph WSW4.8 kmh WSW 8.0 mph12.9 kmh 30.12 in1020.0 mb 0.00 in0.0 mm 0.00 in0.0 mm 0.00 in0.0 mm
11:57 PM 51.3°F10.7°C 45.5°F7.5°C 81% 3.0 mph WSW4.8 kmh WSW 9.0 mph14.5 kmh 30.11 in1019.6 mb 0.00 in0.0 mm 0.00 in0.0 mm 0.00 in0.0 mm